<?xml version="1.0" encoding="UTF-8" standalone="no" ?>
<gpx xmlns="http://www.topografix.com/GPX/1/1" xmlns:xsi="http://www.w3.org/2001/XMLSchema-instance" xsi:schemaLocation="http://www.topografix.com/GPX/1/1 http://www.topografix.com/GPX/1/1/gpx.xsd" version="1.1" creator="VisuGPX - https://www.visugpx.com">
  <metadata>
    <name>Randonnée raquettes départ la Schlucht.</name>
    <desc><![CDATA[Randonnée raquettes départ col de la Sclucht, direction le Honneck,retour par le Collet.]]></desc>
  </metadata>
  <trk>
    <name><![CDATA[2016-03-08 17:03:13]]></name>
    <trkseg>
      <trkpt lat="48.06348" lon="7.02202">
        <ele>1146.16</ele>
        <time>2016-03-08T12:52:12Z</time>
      </trkpt>
      <trkpt lat="48.06348" lon="7.02203">
        <ele>1141.34</ele>
        <time>2016-03-08T12:52:47Z</time>
      </trkpt>
      <trkpt lat="48.06348" lon="7.02203">
        <ele>1147.76</ele>
        <time>2016-03-08T12:52:48Z</time>
      </trkpt>
      <trkpt lat="48.0635" lon="7.02207">
        <ele>1145.86</ele>
        <time>2016-03-08T12:53:03Z</time>
      </trkpt>
      <trkpt lat="48.06351" lon="7.02207">
        <ele>1145.43</ele>
        <time>2016-03-08T12:53:26Z</time>
      </trkpt>
      <trkpt lat="48.06351" lon="7.02205">
        <ele>1145.42</ele>
        <time>2016-03-08T12:53:43Z</time>
      </trkpt>
      <trkpt lat="48.06351" lon="7.02205">
        <ele>1145.41</ele>
        <time>2016-03-08T12:54:08Z</time>
      </trkpt>
      <trkpt lat="48.06348" lon="7.02206">
        <ele>1144.96</ele>
        <time>2016-03-08T12:54:20Z</time>
      </trkpt>
      <trkpt lat="48.06355" lon="7.02215">
        <ele>1145.1</ele>
        <time>2016-03-08T12:54:38Z</time>
      </trkpt>
      <trkpt lat="48.06364" lon="7.02229">
        <ele>1145.56</ele>
        <time>2016-03-08T12:54:55Z</time>
      </trkpt>
      <trkpt lat="48.06366" lon="7.02245">
        <ele>1146.36</ele>
        <time>2016-03-08T12:55:11Z</time>
      </trkpt>
      <trkpt lat="48.06357" lon="7.02245">
        <ele>1147.01</ele>
        <time>2016-03-08T12:55:23Z</time>
      </trkpt>
      <trkpt lat="48.06339" lon="7.02227">
        <ele>1148.02</ele>
        <time>2016-03-08T12:55:45Z</time>
      </trkpt>
      <trkpt lat="48.06325" lon="7.02217">
        <ele>1149.15</ele>
        <time>2016-03-08T12:56:03Z</time>
      </trkpt>
      <trkpt lat="48.06319" lon="7.02211">
        <ele>1149.92</ele>
        <time>2016-03-08T12:56:18Z</time>
      </trkpt>
      <trkpt lat="48.06308" lon="7.02203">
        <ele>1151.75</ele>
        <time>2016-03-08T12:56:38Z</time>
      </trkpt>
      <trkpt lat="48.06304" lon="7.02205">
        <ele>1152.7</ele>
        <time>2016-03-08T12:56:56Z</time>
      </trkpt>
      <trkpt lat="48.06302" lon="7.02209">
        <ele>1153.23</ele>
        <time>2016-03-08T12:57:13Z</time>
      </trkpt>
      <trkpt lat="48.06298" lon="7.02212">
        <ele>1153.89</ele>
        <time>2016-03-08T12:57:19Z</time>
      </trkpt>
      <trkpt lat="48.06296" lon="7.02214">
        <ele>1154.42</ele>
        <time>2016-03-08T12:57:21Z</time>
      </trkpt>
      <trkpt lat="48.06281" lon="7.02207">
        <ele>1156.54</ele>
        <time>2016-03-08T12:57:39Z</time>
      </trkpt>
      <trkpt lat="48.06267" lon="7.02203">
        <ele>1157.59</ele>
        <time>2016-03-08T12:57:56Z</time>
      </trkpt>
      <trkpt lat="48.06253" lon="7.02208">
        <ele>1159.79</ele>
        <time>2016-03-08T12:58:16Z</time>
      </trkpt>
      <trkpt lat="48.06243" lon="7.02212">
        <ele>1161.18</ele>
        <time>2016-03-08T12:58:34Z</time>
      </trkpt>
      <trkpt lat="48.06229" lon="7.02214">
        <ele>1163.61</ele>
        <time>2016-03-08T12:58:52Z</time>
      </trkpt>
      <trkpt lat="48.06216" lon="7.02214">
        <ele>1165.5</ele>
        <time>2016-03-08T12:59:10Z</time>
      </trkpt>
      <trkpt lat="48.06204" lon="7.02212">
        <ele>1166.05</ele>
        <time>2016-03-08T12:59:31Z</time>
      </trkpt>
      <trkpt lat="48.06192" lon="7.02213">
        <ele>1167.79</ele>
        <time>2016-03-08T12:59:52Z</time>
      </trkpt>
      <trkpt lat="48.06179" lon="7.02218">
        <ele>1169.76</ele>
        <time>2016-03-08T13:00:13Z</time>
      </trkpt>
      <trkpt lat="48.06171" lon="7.02221">
        <ele>1169.92</ele>
        <time>2016-03-08T13:00:37Z</time>
      </trkpt>
      <trkpt lat="48.06159" lon="7.02226">
        <ele>1171.4</ele>
        <time>2016-03-08T13:01:00Z</time>
      </trkpt>
      <trkpt lat="48.06153" lon="7.02226">
        <ele>1172.2</ele>
        <time>2016-03-08T13:01:23Z</time>
      </trkpt>
      <trkpt lat="48.06146" lon="7.02223">
        <ele>1173.2</ele>
        <time>2016-03-08T13:01:43Z</time>
      </trkpt>
      <trkpt lat="48.06141" lon="7.02224">
        <ele>1174.63</ele>
        <time>2016-03-08T13:01:53Z</time>
      </trkpt>
      <trkpt lat="48.06132" lon="7.02227">
        <ele>1175.3</ele>
        <time>2016-03-08T13:02:08Z</time>
      </trkpt>
      <trkpt lat="48.06117" lon="7.02228">
        <ele>1176.46</ele>
        <time>2016-03-08T13:02:30Z</time>
      </trkpt>
      <trkpt lat="48.06102" lon="7.02225">
        <ele>1178.73</ele>
        <time>2016-03-08T13:02:49Z</time>
      </trkpt>
      <trkpt lat="48.0609" lon="7.02222">
        <ele>1180.29</ele>
        <time>2016-03-08T13:03:08Z</time>
      </trkpt>
      <trkpt lat="48.06072" lon="7.0222">
        <ele>1181.88</ele>
        <time>2016-03-08T13:03:30Z</time>
      </trkpt>
      <trkpt lat="48.06065" lon="7.02221">
        <ele>1183.12</ele>
        <time>2016-03-08T13:03:49Z</time>
      </trkpt>
      <trkpt lat="48.06058" lon="7.02219">
        <ele>1185.66</ele>
        <time>2016-03-08T13:04:02Z</time>
      </trkpt>
      <trkpt lat="48.06051" lon="7.02231">
        <ele>1187.13</ele>
        <time>2016-03-08T13:04:24Z</time>
      </trkpt>
      <trkpt lat="48.06047" lon="7.02246">
        <ele>1190.27</ele>
        <time>2016-03-08T13:04:44Z</time>
      </trkpt>
      <trkpt lat="48.06045" lon="7.02264">
        <ele>1192.11</ele>
        <time>2016-03-08T13:05:07Z</time>
      </trkpt>
      <trkpt lat="48.06041" lon="7.0228">
        <ele>1193.8</ele>
        <time>2016-03-08T13:05:30Z</time>
      </trkpt>
      <trkpt lat="48.06039" lon="7.02286">
        <ele>1194.57</ele>
        <time>2016-03-08T13:05:39Z</time>
      </trkpt>
      <trkpt lat="48.06034" lon="7.02298">
        <ele>1196.87</ele>
        <time>2016-03-08T13:05:58Z</time>
      </trkpt>
      <trkpt lat="48.06034" lon="7.02308">
        <ele>1197.11</ele>
        <time>2016-03-08T13:06:21Z</time>
      </trkpt>
      <trkpt lat="48.0603" lon="7.0231">
        <ele>1194.52</ele>
        <time>2016-03-08T13:06:40Z</time>
      </trkpt>
      <trkpt lat="48.06029" lon="7.02311">
        <ele>1197.3</ele>
        <time>2016-03-08T13:06:42Z</time>
      </trkpt>
      <trkpt lat="48.06026" lon="7.02321">
        <ele>1198.18</ele>
        <time>2016-03-08T13:07:09Z</time>
      </trkpt>
      <trkpt lat="48.06024" lon="7.02332">
        <ele>1198.81</ele>
        <time>2016-03-08T13:07:34Z</time>
      </trkpt>
      <trkpt lat="48.06031" lon="7.0233">
        <ele>1198.1</ele>
        <time>2016-03-08T13:07:59Z</time>
      </trkpt>
      <trkpt lat="48.06028" lon="7.0233">
        <ele>1198.85</ele>
        <time>2016-03-08T13:08:25Z</time>
      </trkpt>
      <trkpt lat="48.06024" lon="7.02329">
        <ele>1200.05</ele>
        <time>2016-03-08T13:08:52Z</time>
      </trkpt>
      <trkpt lat="48.06011" lon="7.02333">
        <ele>1201.64</ele>
        <time>2016-03-08T13:09:15Z</time>
      </trkpt>
      <trkpt lat="48.06008" lon="7.02335">
        <ele>1202.33</ele>
        <time>2016-03-08T13:09:20Z</time>
      </trkpt>
      <trkpt lat="48.06002" lon="7.02348">
        <ele>1203.94</ele>
        <time>2016-03-08T13:09:43Z</time>
      </trkpt>
      <trkpt lat="48.05995" lon="7.02363">
        <ele>1205.67</ele>
        <time>2016-03-08T13:10:04Z</time>
      </trkpt>
      <trkpt lat="48.0598" lon="7.02367">
        <ele>1206.73</ele>
        <time>2016-03-08T13:10:26Z</time>
      </trkpt>
      <trkpt lat="48.05965" lon="7.02362">
        <ele>1208.54</ele>
        <time>2016-03-08T13:10:47Z</time>
      </trkpt>
      <trkpt lat="48.05946" lon="7.02354">
        <ele>1209.75</ele>
        <time>2016-03-08T13:11:10Z</time>
      </trkpt>
      <trkpt lat="48.0593" lon="7.02347">
        <ele>1210.29</ele>
        <time>2016-03-08T13:11:31Z</time>
      </trkpt>
      <trkpt lat="48.05911" lon="7.02336">
        <ele>1210.74</ele>
        <time>2016-03-08T13:11:54Z</time>
      </trkpt>
      <trkpt lat="48.05899" lon="7.02326">
        <ele>1210.52</ele>
        <time>2016-03-08T13:12:15Z</time>
      </trkpt>
      <trkpt lat="48.05889" lon="7.02319">
        <ele>1210.38</ele>
        <time>2016-03-08T13:12:36Z</time>
      </trkpt>
      <trkpt lat="48.05876" lon="7.02312">
        <ele>1211.06</ele>
        <time>2016-03-08T13:12:57Z</time>
      </trkpt>
      <trkpt lat="48.0586" lon="7.02304">
        <ele>1211.73</ele>
        <time>2016-03-08T13:13:16Z</time>
      </trkpt>
      <trkpt lat="48.05842" lon="7.02298">
        <ele>1215.43</ele>
        <time>2016-03-08T13:13:34Z</time>
      </trkpt>
      <trkpt lat="48.05825" lon="7.02295">
        <ele>1217.35</ele>
        <time>2016-03-08T13:13:56Z</time>
      </trkpt>
      <trkpt lat="48.05809" lon="7.02297">
        <ele>1219.22</ele>
        <time>2016-03-08T13:14:15Z</time>
      </trkpt>
      <trkpt lat="48.05795" lon="7.02304">
        <ele>1220.17</ele>
        <time>2016-03-08T13:14:35Z</time>
      </trkpt>
      <trkpt lat="48.05787" lon="7.02314">
        <ele>1222.02</ele>
        <time>2016-03-08T13:14:54Z</time>
      </trkpt>
      <trkpt lat="48.05782" lon="7.0232">
        <ele>1222.58</ele>
        <time>2016-03-08T13:15:05Z</time>
      </trkpt>
      <trkpt lat="48.05771" lon="7.02333">
        <ele>1224.48</ele>
        <time>2016-03-08T13:15:31Z</time>
      </trkpt>
      <trkpt lat="48.05768" lon="7.02337">
        <ele>1225.13</ele>
        <time>2016-03-08T13:15:37Z</time>
      </trkpt>
      <trkpt lat="48.05765" lon="7.02344">
        <ele>1225.65</ele>
        <time>2016-03-08T13:15:44Z</time>
      </trkpt>
      <trkpt lat="48.05756" lon="7.02359">
        <ele>1227.21</ele>
        <time>2016-03-08T13:16:08Z</time>
      </trkpt>
      <trkpt lat="48.05748" lon="7.02372">
        <ele>1229.23</ele>
        <time>2016-03-08T13:16:30Z</time>
      </trkpt>
      <trkpt lat="48.05735" lon="7.02384">
        <ele>1229.63</ele>
        <time>2016-03-08T13:16:50Z</time>
      </trkpt>
      <trkpt lat="48.05729" lon="7.02385">
        <ele>1232.38</ele>
        <time>2016-03-08T13:17:14Z</time>
      </trkpt>
      <trkpt lat="48.05727" lon="7.02381">
        <ele>1231.81</ele>
        <time>2016-03-08T13:17:39Z</time>
      </trkpt>
      <trkpt lat="48.05721" lon="7.0238">
        <ele>1234.8</ele>
        <time>2016-03-08T13:18:01Z</time>
      </trkpt>
      <trkpt lat="48.05716" lon="7.0238">
        <ele>1234.79</ele>
        <time>2016-03-08T13:18:25Z</time>
      </trkpt>
      <trkpt lat="48.05719" lon="7.02384">
        <ele>1234.12</ele>
        <time>2016-03-08T13:18:54Z</time>
      </trkpt>
      <trkpt lat="48.05712" lon="7.02385">
        <ele>1236.47</ele>
        <time>2016-03-08T13:19:12Z</time>
      </trkpt>
      <trkpt lat="48.057" lon="7.02389">
        <ele>1236.89</ele>
        <time>2016-03-08T13:19:33Z</time>
      </trkpt>
      <trkpt lat="48.05686" lon="7.02395">
        <ele>1238.32</ele>
        <time>2016-03-08T13:19:54Z</time>
      </trkpt>
      <trkpt lat="48.05678" lon="7.02405">
        <ele>1239.19</ele>
        <time>2016-03-08T13:20:15Z</time>
      </trkpt>
      <trkpt lat="48.05671" lon="7.02415">
        <ele>1239.59</ele>
        <time>2016-03-08T13:20:28Z</time>
      </trkpt>
      <trkpt lat="48.05664" lon="7.02428">
        <ele>1239.84</ele>
        <time>2016-03-08T13:20:50Z</time>
      </trkpt>
      <trkpt lat="48.05655" lon="7.02432">
        <ele>1239.54</ele>
        <time>2016-03-08T13:21:11Z</time>
      </trkpt>
      <trkpt lat="48.05655" lon="7.02431">
        <ele>1239.66</ele>
        <time>2016-03-08T13:21:38Z</time>
      </trkpt>
      <trkpt lat="48.05657" lon="7.02431">
        <ele>1239.72</ele>
        <time>2016-03-08T13:22:07Z</time>
      </trkpt>
      <trkpt lat="48.05657" lon="7.02434">
        <ele>1239.58</ele>
        <time>2016-03-08T13:22:31Z</time>
      </trkpt>
      <trkpt lat="48.05651" lon="7.02436">
        <ele>1239.6</ele>
        <time>2016-03-08T13:23:02Z</time>
      </trkpt>
      <trkpt lat="48.05651" lon="7.02435">
        <ele>1239.29</ele>
        <time>2016-03-08T13:23:32Z</time>
      </trkpt>
      <trkpt lat="48.05655" lon="7.0243">
        <ele>1239.72</ele>
        <time>2016-03-08T13:23:54Z</time>
      </trkpt>
      <trkpt lat="48.05655" lon="7.02432">
        <ele>1239.37</ele>
        <time>2016-03-08T13:24:22Z</time>
      </trkpt>
      <trkpt lat="48.05653" lon="7.02435">
        <ele>1239.4</ele>
        <time>2016-03-08T13:24:46Z</time>
      </trkpt>
      <trkpt lat="48.05645" lon="7.02439">
        <ele>1240.52</ele>
        <time>2016-03-08T13:25:07Z</time>
      </trkpt>
      <trkpt lat="48.05637" lon="7.02447">
        <ele>1242.78</ele>
        <time>2016-03-08T13:25:30Z</time>
      </trkpt>
      <trkpt lat="48.05625" lon="7.02461">
        <ele>1242.81</ele>
        <time>2016-03-08T13:25:51Z</time>
      </trkpt>
      <trkpt lat="48.05616" lon="7.02481">
        <ele>1244.42</ele>
        <time>2016-03-08T13:26:12Z</time>
      </trkpt>
      <trkpt lat="48.05612" lon="7.02497">
        <ele>1243.88</ele>
        <time>2016-03-08T13:26:32Z</time>
      </trkpt>
      <trkpt lat="48.05613" lon="7.02507">
        <ele>1243.31</ele>
        <time>2016-03-08T13:26:52Z</time>
      </trkpt>
      <trkpt lat="48.05605" lon="7.02512">
        <ele>1242.81</ele>
        <time>2016-03-08T13:27:09Z</time>
      </trkpt>
      <trkpt lat="48.05605" lon="7.02524">
        <ele>1241.24</ele>
        <time>2016-03-08T13:27:27Z</time>
      </trkpt>
      <trkpt lat="48.05589" lon="7.02531">
        <ele>1241.75</ele>
        <time>2016-03-08T13:27:48Z</time>
      </trkpt>
      <trkpt lat="48.05585" lon="7.0253">
        <ele>1241.8</ele>
        <time>2016-03-08T13:28:10Z</time>
      </trkpt>
      <trkpt lat="48.05585" lon="7.0252">
        <ele>1242.9</ele>
        <time>2016-03-08T13:28:29Z</time>
      </trkpt>
      <trkpt lat="48.05584" lon="7.02519">
        <ele>1242.35</ele>
        <time>2016-03-08T13:28:52Z</time>
      </trkpt>
      <trkpt lat="48.05581" lon="7.0252">
        <ele>1242.92</ele>
        <time>2016-03-08T13:29:16Z</time>
      </trkpt>
      <trkpt lat="48.05581" lon="7.02521">
        <ele>1242.79</ele>
        <time>2016-03-08T13:29:44Z</time>
      </trkpt>
      <trkpt lat="48.05583" lon="7.02528">
        <ele>1241.17</ele>
        <time>2016-03-08T13:30:06Z</time>
      </trkpt>
      <trkpt lat="48.05583" lon="7.02533">
        <ele>1241.41</ele>
        <time>2016-03-08T13:30:33Z</time>
      </trkpt>
      <trkpt lat="48.05586" lon="7.02533">
        <ele>1241.05</ele>
        <time>2016-03-08T13:31:04Z</time>
      </trkpt>
      <trkpt lat="48.05587" lon="7.02528">
        <ele>1242.29</ele>
        <time>2016-03-08T13:31:27Z</time>
      </trkpt>
      <trkpt lat="48.05582" lon="7.02524">
        <ele>1242.12</ele>
        <time>2016-03-08T13:31:53Z</time>
      </trkpt>
      <trkpt lat="48.05577" lon="7.02527">
        <ele>1242.42</ele>
        <time>2016-03-08T13:32:21Z</time>
      </trkpt>
      <trkpt lat="48.05576" lon="7.02527">
        <ele>1241.75</ele>
        <time>2016-03-08T13:32:44Z</time>
      </trkpt>
      <trkpt lat="48.05579" lon="7.02526">
        <ele>1242.36</ele>
        <time>2016-03-08T13:33:08Z</time>
      </trkpt>
      <trkpt lat="48.05579" lon="7.02523">
        <ele>1242.58</ele>
        <time>2016-03-08T13:33:33Z</time>
      </trkpt>
      <trkpt lat="48.05578" lon="7.02523">
        <ele>1242.22</ele>
        <time>2016-03-08T13:33:56Z</time>
      </trkpt>
      <trkpt lat="48.05578" lon="7.02521">
        <ele>1242.27</ele>
        <time>2016-03-08T13:34:22Z</time>
      </trkpt>
      <trkpt lat="48.05578" lon="7.02519">
        <ele>1242.57</ele>
        <time>2016-03-08T13:34:46Z</time>
      </trkpt>
      <trkpt lat="48.0558" lon="7.02521">
        <ele>1243.08</ele>
        <time>2016-03-08T13:35:13Z</time>
      </trkpt>
      <trkpt lat="48.05581" lon="7.02522">
        <ele>1242.45</ele>
        <time>2016-03-08T13:35:40Z</time>
      </trkpt>
      <trkpt lat="48.0558" lon="7.02525">
        <ele>1241.55</ele>
        <time>2016-03-08T13:36:00Z</time>
      </trkpt>
      <trkpt lat="48.0558" lon="7.02524">
        <ele>1242.91</ele>
        <time>2016-03-08T13:36:03Z</time>
      </trkpt>
      <trkpt lat="48.05578" lon="7.02524">
        <ele>1242.44</ele>
        <time>2016-03-08T13:36:28Z</time>
      </trkpt>
      <trkpt lat="48.05568" lon="7.0253">
        <ele>1241.73</ele>
        <time>2016-03-08T13:36:46Z</time>
      </trkpt>
      <trkpt lat="48.05555" lon="7.02531">
        <ele>1240.57</ele>
        <time>2016-03-08T13:37:07Z</time>
      </trkpt>
      <trkpt lat="48.05544" lon="7.02528">
        <ele>1241.26</ele>
        <time>2016-03-08T13:37:25Z</time>
      </trkpt>
      <trkpt lat="48.05543" lon="7.02528">
        <ele>1240.93</ele>
        <time>2016-03-08T13:37:30Z</time>
      </trkpt>
      <trkpt lat="48.05536" lon="7.02527">
        <ele>1240.25</ele>
        <time>2016-03-08T13:37:36Z</time>
      </trkpt>
      <trkpt lat="48.05525" lon="7.0253">
        <ele>1240.17</ele>
        <time>2016-03-08T13:37:53Z</time>
      </trkpt>
      <trkpt lat="48.05513" lon="7.02529">
        <ele>1238.42</ele>
        <time>2016-03-08T13:38:09Z</time>
      </trkpt>
      <trkpt lat="48.055" lon="7.02526">
        <ele>1238.35</ele>
        <time>2016-03-08T13:38:30Z</time>
      </trkpt>
      <trkpt lat="48.05491" lon="7.02533">
        <ele>1236.78</ele>
        <time>2016-03-08T13:38:52Z</time>
      </trkpt>
      <trkpt lat="48.05476" lon="7.02539">
        <ele>1234.71</ele>
        <time>2016-03-08T13:39:06Z</time>
      </trkpt>
      <trkpt lat="48.05465" lon="7.02543">
        <ele>1232.88</ele>
        <time>2016-03-08T13:39:21Z</time>
      </trkpt>
      <trkpt lat="48.05449" lon="7.02548">
        <ele>1229.43</ele>
        <time>2016-03-08T13:39:44Z</time>
      </trkpt>
      <trkpt lat="48.05428" lon="7.0255">
        <ele>1228.97</ele>
        <time>2016-03-08T13:40:07Z</time>
      </trkpt>
      <trkpt lat="48.05416" lon="7.02552">
        <ele>1226.69</ele>
        <time>2016-03-08T13:40:22Z</time>
      </trkpt>
      <trkpt lat="48.05408" lon="7.02545">
        <ele>1226.05</ele>
        <time>2016-03-08T13:40:42Z</time>
      </trkpt>
      <trkpt lat="48.05402" lon="7.0254">
        <ele>1225.51</ele>
        <time>2016-03-08T13:40:49Z</time>
      </trkpt>
      <trkpt lat="48.05399" lon="7.02529">
        <ele>1225.45</ele>
        <time>2016-03-08T13:41:02Z</time>
      </trkpt>
      <trkpt lat="48.05397" lon="7.02528">
        <ele>1225.86</ele>
        <time>2016-03-08T13:41:35Z</time>
      </trkpt>
      <trkpt lat="48.05398" lon="7.02528">
        <ele>1225.81</ele>
        <time>2016-03-08T13:42:01Z</time>
      </trkpt>
      <trkpt lat="48.05398" lon="7.02529">
        <ele>1225.43</ele>
        <time>2016-03-08T13:42:24Z</time>
      </trkpt>
      <trkpt lat="48.05398" lon="7.02531">
        <ele>1225.04</ele>
        <time>2016-03-08T13:42:48Z</time>
      </trkpt>
      <trkpt lat="48.05393" lon="7.02529">
        <ele>1223.74</ele>
        <time>2016-03-08T13:43:01Z</time>
      </trkpt>
      <trkpt lat="48.05393" lon="7.02527">
        <ele>1223.76</ele>
        <time>2016-03-08T13:43:03Z</time>
      </trkpt>
      <trkpt lat="48.05391" lon="7.02517">
        <ele>1224.18</ele>
        <time>2016-03-08T13:43:18Z</time>
      </trkpt>
      <trkpt lat="48.05391" lon="7.0252">
        <ele>1224.11</ele>
        <time>2016-03-08T13:43:36Z</time>
      </trkpt>
      <trkpt lat="48.05395" lon="7.0253">
        <ele>1224.55</ele>
        <time>2016-03-08T13:44:00Z</time>
      </trkpt>
      <trkpt lat="48.05397" lon="7.0253">
        <ele>1225.39</ele>
        <time>2016-03-08T13:44:17Z</time>
      </trkpt>
      <trkpt lat="48.05398" lon="7.02529">
        <ele>1224.95</ele>
        <time>2016-03-08T13:44:35Z</time>
      </trkpt>
      <trkpt lat="48.05399" lon="7.02531">
        <ele>1225.61</ele>
        <time>2016-03-08T13:44:53Z</time>
      </trkpt>
      <trkpt lat="48.05399" lon="7.02532">
        <ele>1225.62</ele>
        <time>2016-03-08T13:45:25Z</time>
      </trkpt>
      <trkpt lat="48.05399" lon="7.02532">
        <ele>1225.75</ele>
        <time>2016-03-08T13:45:51Z</time>
      </trkpt>
      <trkpt lat="48.05398" lon="7.02529">
        <ele>1225.29</ele>
        <time>2016-03-08T13:46:17Z</time>
      </trkpt>
      <trkpt lat="48.05397" lon="7.02528">
        <ele>1225.25</ele>
        <time>2016-03-08T13:46:38Z</time>
      </trkpt>
      <trkpt lat="48.05397" lon="7.02528">
        <ele>1224.85</ele>
        <time>2016-03-08T13:47:03Z</time>
      </trkpt>
      <trkpt lat="48.05395" lon="7.02529">
        <ele>1224.41</ele>
        <time>2016-03-08T13:47:26Z</time>
      </trkpt>
      <trkpt lat="48.05388" lon="7.02529">
        <ele>1223.29</ele>
        <time>2016-03-08T13:47:37Z</time>
      </trkpt>
      <trkpt lat="48.05374" lon="7.02525">
        <ele>1221.01</ele>
        <time>2016-03-08T13:47:54Z</time>
      </trkpt>
      <trkpt lat="48.05359" lon="7.02519">
        <ele>1218.09</ele>
        <time>2016-03-08T13:48:12Z</time>
      </trkpt>
      <trkpt lat="48.05343" lon="7.02517">
        <ele>1216.61</ele>
        <time>2016-03-08T13:48:31Z</time>
      </trkpt>
      <trkpt lat="48.05333" lon="7.02514">
        <ele>1212.97</ele>
        <time>2016-03-08T13:48:45Z</time>
      </trkpt>
      <trkpt lat="48.05332" lon="7.02514">
        <ele>1213.25</ele>
        <time>2016-03-08T13:48:46Z</time>
      </trkpt>
      <trkpt lat="48.05319" lon="7.02514">
        <ele>1211.7</ele>
        <time>2016-03-08T13:49:04Z</time>
      </trkpt>
      <trkpt lat="48.05306" lon="7.02508">
        <ele>1210.04</ele>
        <time>2016-03-08T13:49:21Z</time>
      </trkpt>
      <trkpt lat="48.05304" lon="7.02507">
        <ele>1210.11</ele>
        <time>2016-03-08T13:49:24Z</time>
      </trkpt>
      <trkpt lat="48.05289" lon="7.02501">
        <ele>1208.47</ele>
        <time>2016-03-08T13:49:42Z</time>
      </trkpt>
      <trkpt lat="48.05275" lon="7.02494">
        <ele>1207.39</ele>
        <time>2016-03-08T13:50:01Z</time>
      </trkpt>
      <trkpt lat="48.05259" lon="7.02485">
        <ele>1205.77</ele>
        <time>2016-03-08T13:50:21Z</time>
      </trkpt>
      <trkpt lat="48.05245" lon="7.02476">
        <ele>1204.03</ele>
        <time>2016-03-08T13:50:40Z</time>
      </trkpt>
      <trkpt lat="48.05233" lon="7.02464">
        <ele>1203.81</ele>
        <time>2016-03-08T13:50:57Z</time>
      </trkpt>
      <trkpt lat="48.05222" lon="7.02452">
        <ele>1202.58</ele>
        <time>2016-03-08T13:51:12Z</time>
      </trkpt>
      <trkpt lat="48.05217" lon="7.02445">
        <ele>1202.51</ele>
        <time>2016-03-08T13:51:27Z</time>
      </trkpt>
      <trkpt lat="48.05214" lon="7.02442">
        <ele>1202.68</ele>
        <time>2016-03-08T13:51:31Z</time>
      </trkpt>
      <trkpt lat="48.05197" lon="7.02426">
        <ele>1201.3</ele>
        <time>2016-03-08T13:51:48Z</time>
      </trkpt>
      <trkpt lat="48.05184" lon="7.02418">
        <ele>1201.53</ele>
        <time>2016-03-08T13:52:04Z</time>
      </trkpt>
      <trkpt lat="48.0517" lon="7.02409">
        <ele>1201.85</ele>
        <time>2016-03-08T13:52:23Z</time>
      </trkpt>
      <trkpt lat="48.05157" lon="7.02399">
        <ele>1202.16</ele>
        <time>2016-03-08T13:52:41Z</time>
      </trkpt>
      <trkpt lat="48.05154" lon="7.02397">
        <ele>1202.58</ele>
        <time>2016-03-08T13:52:59Z</time>
      </trkpt>
      <trkpt lat="48.05154" lon="7.02398">
        <ele>1203.54</ele>
        <time>2016-03-08T13:53:29Z</time>
      </trkpt>
      <trkpt lat="48.05144" lon="7.02392">
        <ele>1204.7</ele>
        <time>2016-03-08T13:53:48Z</time>
      </trkpt>
      <trkpt lat="48.05133" lon="7.02385">
        <ele>1205.65</ele>
        <time>2016-03-08T13:54:07Z</time>
      </trkpt>
      <trkpt lat="48.05122" lon="7.02377">
        <ele>1207.12</ele>
        <time>2016-03-08T13:54:26Z</time>
      </trkpt>
      <trkpt lat="48.05111" lon="7.02372">
        <ele>1208.22</ele>
        <time>2016-03-08T13:54:46Z</time>
      </trkpt>
      <trkpt lat="48.05099" lon="7.02367">
        <ele>1209.97</ele>
        <time>2016-03-08T13:55:06Z</time>
      </trkpt>
      <trkpt lat="48.05089" lon="7.02362">
        <ele>1212.02</ele>
        <time>2016-03-08T13:55:27Z</time>
      </trkpt>
      <trkpt lat="48.05079" lon="7.02359">
        <ele>1212.45</ele>
        <time>2016-03-08T13:55:45Z</time>
      </trkpt>
      <trkpt lat="48.05067" lon="7.02357">
        <ele>1214.51</ele>
        <time>2016-03-08T13:56:05Z</time>
      </trkpt>
      <trkpt lat="48.05053" lon="7.02359">
        <ele>1215.62</ele>
        <time>2016-03-08T13:56:26Z</time>
      </trkpt>
      <trkpt lat="48.0504" lon="7.02364">
        <ele>1215.93</ele>
        <time>2016-03-08T13:56:44Z</time>
      </trkpt>
      <trkpt lat="48.05025" lon="7.0237">
        <ele>1217.88</ele>
        <time>2016-03-08T13:57:07Z</time>
      </trkpt>
      <trkpt lat="48.05014" lon="7.02367">
        <ele>1218.04</ele>
        <time>2016-03-08T13:57:26Z</time>
      </trkpt>
      <trkpt lat="48.05004" lon="7.0236">
        <ele>1219.86</ele>
        <time>2016-03-08T13:57:44Z</time>
      </trkpt>
      <trkpt lat="48.04994" lon="7.0235">
        <ele>1221.28</ele>
        <time>2016-03-08T13:58:02Z</time>
      </trkpt>
      <trkpt lat="48.0499" lon="7.02348">
        <ele>1221.44</ele>
        <time>2016-03-08T13:58:24Z</time>
      </trkpt>
      <trkpt lat="48.04995" lon="7.02344">
        <ele>1221.01</ele>
        <time>2016-03-08T13:58:41Z</time>
      </trkpt>
      <trkpt lat="48.04994" lon="7.02342">
        <ele>1221.17</ele>
        <time>2016-03-08T13:58:49Z</time>
      </trkpt>
      <trkpt lat="48.04991" lon="7.02332">
        <ele>1220.09</ele>
        <time>2016-03-08T13:59:06Z</time>
      </trkpt>
      <trkpt lat="48.0499" lon="7.02342">
        <ele>1221.1</ele>
        <time>2016-03-08T13:59:38Z</time>
      </trkpt>
      <trkpt lat="48.04988" lon="7.02352">
        <ele>1221.23</ele>
        <time>2016-03-08T13:59:49Z</time>
      </trkpt>
      <trkpt lat="48.0498" lon="7.02362">
        <ele>1221.91</ele>
        <time>2016-03-08T14:00:08Z</time>
      </trkpt>
      <trkpt lat="48.04982" lon="7.02362">
        <ele>1221.52</ele>
        <time>2016-03-08T14:00:30Z</time>
      </trkpt>
      <trkpt lat="48.04989" lon="7.02354">
        <ele>1222</ele>
        <time>2016-03-08T14:00:43Z</time>
      </trkpt>
      <trkpt lat="48.04992" lon="7.0235">
        <ele>1221.52</ele>
        <time>2016-03-08T14:00:57Z</time>
      </trkpt>
      <trkpt lat="48.04991" lon="7.02349">
        <ele>1221.33</ele>
        <time>2016-03-08T14:01:14Z</time>
      </trkpt>
      <trkpt lat="48.04991" lon="7.02348">
        <ele>1221.28</ele>
        <time>2016-03-08T14:01:39Z</time>
      </trkpt>
      <trkpt lat="48.04992" lon="7.02347">
        <ele>1220.83</ele>
        <time>2016-03-08T14:01:42Z</time>
      </trkpt>
      <trkpt lat="48.04989" lon="7.0234">
        <ele>1220.85</ele>
        <time>2016-03-08T14:01:55Z</time>
      </trkpt>
      <trkpt lat="48.0499" lon="7.02341">
        <ele>1220.68</ele>
        <time>2016-03-08T14:02:17Z</time>
      </trkpt>
      <trkpt lat="48.0499" lon="7.02342">
        <ele>1221.12</ele>
        <time>2016-03-08T14:02:41Z</time>
      </trkpt>
      <trkpt lat="48.04992" lon="7.02343">
        <ele>1220.96</ele>
        <time>2016-03-08T14:03:02Z</time>
      </trkpt>
      <trkpt lat="48.04992" lon="7.02345">
        <ele>1221.42</ele>
        <time>2016-03-08T14:03:19Z</time>
      </trkpt>
      <trkpt lat="48.04992" lon="7.02346">
        <ele>1221.78</ele>
        <time>2016-03-08T14:03:36Z</time>
      </trkpt>
      <trkpt lat="48.04992" lon="7.02347">
        <ele>1221.34</ele>
        <time>2016-03-08T14:04:11Z</time>
      </trkpt>
      <trkpt lat="48.04992" lon="7.02346">
        <ele>1221.11</ele>
        <time>2016-03-08T14:04:39Z</time>
      </trkpt>
      <trkpt lat="48.04992" lon="7.02346">
        <ele>1220.88</ele>
        <time>2016-03-08T14:04:59Z</time>
      </trkpt>
      <trkpt lat="48.04992" lon="7.02346">
        <ele>1220.44</ele>
        <time>2016-03-08T14:05:23Z</time>
      </trkpt>
      <trkpt lat="48.04992" lon="7.02347">
        <ele>1220.63</ele>
        <time>2016-03-08T14:05:50Z</time>
      </trkpt>
      <trkpt lat="48.04992" lon="7.02347">
        <ele>1220.93</ele>
        <time>2016-03-08T14:06:11Z</time>
      </trkpt>
      <trkpt lat="48.0499" lon="7.02348">
        <ele>1221.6</ele>
        <time>2016-03-08T14:06:36Z</time>
      </trkpt>
      <trkpt lat="48.0499" lon="7.02348">
        <ele>1220.24</ele>
        <time>2016-03-08T14:07:07Z</time>
      </trkpt>
      <trkpt lat="48.04989" lon="7.02348">
        <ele>1220.62</ele>
        <time>2016-03-08T14:07:34Z</time>
      </trkpt>
      <trkpt lat="48.04995" lon="7.02345">
        <ele>1217.33</ele>
        <time>2016-03-08T14:07:48Z</time>
      </trkpt>
      <trkpt lat="48.04995" lon="7.02344">
        <ele>1222.57</ele>
        <time>2016-03-08T14:07:49Z</time>
      </trkpt>
      <trkpt lat="48.04994" lon="7.02344">
        <ele>1219.9</ele>
        <time>2016-03-08T14:07:52Z</time>
      </trkpt>
      <trkpt lat="48.0499" lon="7.02348">
        <ele>1220.58</ele>
        <time>2016-03-08T14:08:09Z</time>
      </trkpt>
      <trkpt lat="48.0499" lon="7.02348">
        <ele>1220.41</ele>
        <time>2016-03-08T14:08:38Z</time>
      </trkpt>
      <trkpt lat="48.0499" lon="7.02349">
        <ele>1221.16</ele>
        <time>2016-03-08T14:09:02Z</time>
      </trkpt>
      <trkpt lat="48.04991" lon="7.02347">
        <ele>1220.7</ele>
        <time>2016-03-08T14:09:18Z</time>
      </trkpt>
      <trkpt lat="48.04991" lon="7.02347">
        <ele>1220.67</ele>
        <time>2016-03-08T14:09:39Z</time>
      </trkpt>
      <trkpt lat="48.0499" lon="7.02347">
        <ele>1220.28</ele>
        <time>2016-03-08T14:10:02Z</time>
      </trkpt>
      <trkpt lat="48.0499" lon="7.02348">
        <ele>1220.39</ele>
        <time>2016-03-08T14:10:28Z</time>
      </trkpt>
      <trkpt lat="48.0499" lon="7.0235">
        <ele>1220.06</ele>
        <time>2016-03-08T14:11:03Z</time>
      </trkpt>
      <trkpt lat="48.04989" lon="7.02348">
        <ele>1220.29</ele>
        <time>2016-03-08T14:11:33Z</time>
      </trkpt>
      <trkpt lat="48.04987" lon="7.02352">
        <ele>1220.38</ele>
        <time>2016-03-08T14:11:48Z</time>
      </trkpt>
      <trkpt lat="48.04989" lon="7.02353">
        <ele>1220.63</ele>
        <time>2016-03-08T14:12:13Z</time>
      </trkpt>
      <trkpt lat="48.04991" lon="7.02352">
        <ele>1220.75</ele>
        <time>2016-03-08T14:12:35Z</time>
      </trkpt>
      <trkpt lat="48.04991" lon="7.02349">
        <ele>1220.26</ele>
        <time>2016-03-08T14:12:54Z</time>
      </trkpt>
      <trkpt lat="48.04991" lon="7.02348">
        <ele>1220.24</ele>
        <time>2016-03-08T14:13:21Z</time>
      </trkpt>
      <trkpt lat="48.04993" lon="7.02347">
        <ele>1220.54</ele>
        <time>2016-03-08T14:13:37Z</time>
      </trkpt>
      <trkpt lat="48.05001" lon="7.0234">
        <ele>1220.07</ele>
        <time>2016-03-08T14:13:53Z</time>
      </trkpt>
      <trkpt lat="48.05011" lon="7.0233">
        <ele>1219.64</ele>
        <time>2016-03-08T14:14:12Z</time>
      </trkpt>
      <trkpt lat="48.05018" lon="7.02322">
        <ele>1218.84</ele>
        <time>2016-03-08T14:14:29Z</time>
      </trkpt>
      <trkpt lat="48.05026" lon="7.02314">
        <ele>1218.87</ele>
        <time>2016-03-08T14:14:45Z</time>
      </trkpt>
      <trkpt lat="48.05026" lon="7.02312">
        <ele>1218.45</ele>
        <time>2016-03-08T14:15:02Z</time>
      </trkpt>
      <trkpt lat="48.05044" lon="7.02303">
        <ele>1218.95</ele>
        <time>2016-03-08T14:15:20Z</time>
      </trkpt>
      <trkpt lat="48.05056" lon="7.02287">
        <ele>1217.03</ele>
        <time>2016-03-08T14:15:36Z</time>
      </trkpt>
      <trkpt lat="48.05064" lon="7.0226">
        <ele>1216.36</ele>
        <time>2016-03-08T14:15:55Z</time>
      </trkpt>
      <trkpt lat="48.05067" lon="7.02247">
        <ele>1216.27</ele>
        <time>2016-03-08T14:16:11Z</time>
      </trkpt>
      <trkpt lat="48.05067" lon="7.02243">
        <ele>1216.56</ele>
        <time>2016-03-08T14:16:14Z</time>
      </trkpt>
      <trkpt lat="48.0507" lon="7.02222">
        <ele>1216.95</ele>
        <time>2016-03-08T14:16:32Z</time>
      </trkpt>
      <trkpt lat="48.05072" lon="7.02216">
        <ele>1217.19</ele>
        <time>2016-03-08T14:16:50Z</time>
      </trkpt>
      <trkpt lat="48.05072" lon="7.02208">
        <ele>1216.88</ele>
        <time>2016-03-08T14:17:19Z</time>
      </trkpt>
      <trkpt lat="48.0507" lon="7.02195">
        <ele>1217.08</ele>
        <time>2016-03-08T14:17:36Z</time>
      </trkpt>
      <trkpt lat="48.05077" lon="7.02175">
        <ele>1217.9</ele>
        <time>2016-03-08T14:17:54Z</time>
      </trkpt>
      <trkpt lat="48.05083" lon="7.0215">
        <ele>1218.57</ele>
        <time>2016-03-08T14:18:11Z</time>
      </trkpt>
      <trkpt lat="48.05094" lon="7.02132">
        <ele>1218.99</ele>
        <time>2016-03-08T14:18:32Z</time>
      </trkpt>
      <trkpt lat="48.051" lon="7.02116">
        <ele>1217.99</ele>
        <time>2016-03-08T14:18:50Z</time>
      </trkpt>
      <trkpt lat="48.05101" lon="7.02099">
        <ele>1214.93</ele>
        <time>2016-03-08T14:19:05Z</time>
      </trkpt>
      <trkpt lat="48.05108" lon="7.0208">
        <ele>1214.19</ele>
        <time>2016-03-08T14:19:21Z</time>
      </trkpt>
      <trkpt lat="48.05114" lon="7.02046">
        <ele>1214.12</ele>
        <time>2016-03-08T14:19:43Z</time>
      </trkpt>
      <trkpt lat="48.05118" lon="7.0202">
        <ele>1213.45</ele>
        <time>2016-03-08T14:20:02Z</time>
      </trkpt>
      <trkpt lat="48.05113" lon="7.01996">
        <ele>1213.12</ele>
        <time>2016-03-08T14:20:20Z</time>
      </trkpt>
      <trkpt lat="48.05115" lon="7.01968">
        <ele>1215.36</ele>
        <time>2016-03-08T14:20:43Z</time>
      </trkpt>
      <trkpt lat="48.05117" lon="7.01943">
        <ele>1214.71</ele>
        <time>2016-03-08T14:21:02Z</time>
      </trkpt>
      <trkpt lat="48.05118" lon="7.01909">
        <ele>1216.2</ele>
        <time>2016-03-08T14:21:21Z</time>
      </trkpt>
      <trkpt lat="48.05111" lon="7.01894">
        <ele>1217.13</ele>
        <time>2016-03-08T14:21:37Z</time>
      </trkpt>
      <trkpt lat="48.05107" lon="7.01874">
        <ele>1219.02</ele>
        <time>2016-03-08T14:21:54Z</time>
      </trkpt>
      <trkpt lat="48.05104" lon="7.01857">
        <ele>1219.5</ele>
        <time>2016-03-08T14:22:14Z</time>
      </trkpt>
      <trkpt lat="48.05099" lon="7.01845">
        <ele>1219.63</ele>
        <time>2016-03-08T14:22:34Z</time>
      </trkpt>
      <trkpt lat="48.05103" lon="7.01837">
        <ele>1222.83</ele>
        <time>2016-03-08T14:22:50Z</time>
      </trkpt>
      <trkpt lat="48.05108" lon="7.01834">
        <ele>1222.75</ele>
        <time>2016-03-08T14:23:05Z</time>
      </trkpt>
      <trkpt lat="48.05109" lon="7.01824">
        <ele>1224.48</ele>
        <time>2016-03-08T14:23:19Z</time>
      </trkpt>
      <trkpt lat="48.05107" lon="7.01818">
        <ele>1225.1</ele>
        <time>2016-03-08T14:23:40Z</time>
      </trkpt>
      <trkpt lat="48.05098" lon="7.01813">
        <ele>1225.08</ele>
        <time>2016-03-08T14:23:56Z</time>
      </trkpt>
      <trkpt lat="48.0509" lon="7.01802">
        <ele>1227.45</ele>
        <time>2016-03-08T14:24:15Z</time>
      </trkpt>
      <trkpt lat="48.05084" lon="7.01796">
        <ele>1227.78</ele>
        <time>2016-03-08T14:24:29Z</time>
      </trkpt>
      <trkpt lat="48.05076" lon="7.01787">
        <ele>1229.44</ele>
        <time>2016-03-08T14:24:46Z</time>
      </trkpt>
      <trkpt lat="48.05064" lon="7.01778">
        <ele>1232.08</ele>
        <time>2016-03-08T14:25:07Z</time>
      </trkpt>
      <trkpt lat="48.05048" lon="7.01772">
        <ele>1232.23</ele>
        <time>2016-03-08T14:25:28Z</time>
      </trkpt>
      <trkpt lat="48.05034" lon="7.0176">
        <ele>1233.65</ele>
        <time>2016-03-08T14:25:48Z</time>
      </trkpt>
      <trkpt lat="48.05031" lon="7.01759">
        <ele>1234.28</ele>
        <time>2016-03-08T14:25:53Z</time>
      </trkpt>
      <trkpt lat="48.05012" lon="7.0175">
        <ele>1235.3</ele>
        <time>2016-03-08T14:26:16Z</time>
      </trkpt>
      <trkpt lat="48.04998" lon="7.01747">
        <ele>1235.9</ele>
        <time>2016-03-08T14:26:34Z</time>
      </trkpt>
      <trkpt lat="48.04985" lon="7.01739">
        <ele>1236.14</ele>
        <time>2016-03-08T14:26:54Z</time>
      </trkpt>
      <trkpt lat="48.04977" lon="7.0173">
        <ele>1235.99</ele>
        <time>2016-03-08T14:27:17Z</time>
      </trkpt>
      <trkpt lat="48.04975" lon="7.01729">
        <ele>1236.66</ele>
        <time>2016-03-08T14:27:40Z</time>
      </trkpt>
      <trkpt lat="48.04974" lon="7.01728">
        <ele>1236.1</ele>
        <time>2016-03-08T14:28:03Z</time>
      </trkpt>
      <trkpt lat="48.0497" lon="7.01721">
        <ele>1235.79</ele>
        <time>2016-03-08T14:28:24Z</time>
      </trkpt>
      <trkpt lat="48.04967" lon="7.01712">
        <ele>1235.53</ele>
        <time>2016-03-08T14:28:48Z</time>
      </trkpt>
      <trkpt lat="48.04962" lon="7.01705">
        <ele>1235.39</ele>
        <time>2016-03-08T14:29:12Z</time>
      </trkpt>
      <trkpt lat="48.04956" lon="7.01704">
        <ele>1235.55</ele>
        <time>2016-03-08T14:29:38Z</time>
      </trkpt>
      <trkpt lat="48.04952" lon="7.01705">
        <ele>1235.07</ele>
        <time>2016-03-08T14:30:07Z</time>
      </trkpt>
      <trkpt lat="48.04952" lon="7.01705">
        <ele>1235.11</ele>
        <time>2016-03-08T14:30:34Z</time>
      </trkpt>
      <trkpt lat="48.04945" lon="7.01695">
        <ele>1233.33</ele>
        <time>2016-03-08T14:30:54Z</time>
      </trkpt>
      <trkpt lat="48.04939" lon="7.01681">
        <ele>1235.02</ele>
        <time>2016-03-08T14:31:12Z</time>
      </trkpt>
      <trkpt lat="48.04931" lon="7.01663">
        <ele>1235.89</ele>
        <time>2016-03-08T14:31:32Z</time>
      </trkpt>
      <trkpt lat="48.04923" lon="7.01648">
        <ele>1238.41</ele>
        <time>2016-03-08T14:31:52Z</time>
      </trkpt>
      <trkpt lat="48.04916" lon="7.01633">
        <ele>1241.21</ele>
        <time>2016-03-08T14:32:14Z</time>
      </trkpt>
      <trkpt lat="48.04906" lon="7.01621">
        <ele>1242.28</ele>
        <time>2016-03-08T14:32:37Z</time>
      </trkpt>
      <trkpt lat="48.04894" lon="7.01611">
        <ele>1245.13</ele>
        <time>2016-03-08T14:32:55Z</time>
      </trkpt>
      <trkpt lat="48.04884" lon="7.01597">
        <ele>1248.36</ele>
        <time>2016-03-08T14:33:14Z</time>
      </trkpt>
      <trkpt lat="48.04873" lon="7.01589">
        <ele>1250.45</ele>
        <time>2016-03-08T14:33:36Z</time>
      </trkpt>
      <trkpt lat="48.04863" lon="7.01577">
        <ele>1251.53</ele>
        <time>2016-03-08T14:33:58Z</time>
      </trkpt>
      <trkpt lat="48.04852" lon="7.01571">
        <ele>1252.89</ele>
        <time>2016-03-08T14:34:16Z</time>
      </trkpt>
      <trkpt lat="48.04844" lon="7.01559">
        <ele>1256.11</ele>
        <time>2016-03-08T14:34:35Z</time>
      </trkpt>
      <trkpt lat="48.04838" lon="7.01544">
        <ele>1256.99</ele>
        <time>2016-03-08T14:34:55Z</time>
      </trkpt>
      <trkpt lat="48.04835" lon="7.01528">
        <ele>1257.85</ele>
        <time>2016-03-08T14:35:13Z</time>
      </trkpt>
      <trkpt lat="48.04828" lon="7.01519">
        <ele>1259.71</ele>
        <time>2016-03-08T14:35:30Z</time>
      </trkpt>
      <trkpt lat="48.04827" lon="7.01519">
        <ele>1259.11</ele>
        <time>2016-03-08T14:35:31Z</time>
      </trkpt>
      <trkpt lat="48.04814" lon="7.01523">
        <ele>1261.29</ele>
        <time>2016-03-08T14:35:48Z</time>
      </trkpt>
      <trkpt lat="48.04803" lon="7.01523">
        <ele>1262.71</ele>
        <time>2016-03-08T14:36:04Z</time>
      </trkpt>
      <trkpt lat="48.04789" lon="7.01528">
        <ele>1263.53</ele>
        <time>2016-03-08T14:36:22Z</time>
      </trkpt>
      <trkpt lat="48.04784" lon="7.01532">
        <ele>1264.26</ele>
        <time>2016-03-08T14:36:38Z</time>
      </trkpt>
      <trkpt lat="48.04774" lon="7.01527">
        <ele>1265.31</ele>
        <time>2016-03-08T14:36:55Z</time>
      </trkpt>
      <trkpt lat="48.04768" lon="7.01526">
        <ele>1266.61</ele>
        <time>2016-03-08T14:37:08Z</time>
      </trkpt>
      <trkpt lat="48.04759" lon="7.01528">
        <ele>1266.97</ele>
        <time>2016-03-08T14:37:30Z</time>
      </trkpt>
      <trkpt lat="48.04753" lon="7.01528">
        <ele>1267.16</ele>
        <time>2016-03-08T14:37:48Z</time>
      </trkpt>
      <trkpt lat="48.04751" lon="7.01528">
        <ele>1266.13</ele>
        <time>2016-03-08T14:37:52Z</time>
      </trkpt>
      <trkpt lat="48.04732" lon="7.01538">
        <ele>1267.91</ele>
        <time>2016-03-08T14:38:11Z</time>
      </trkpt>
      <trkpt lat="48.04726" lon="7.01541">
        <ele>1269.05</ele>
        <time>2016-03-08T14:38:28Z</time>
      </trkpt>
      <trkpt lat="48.04716" lon="7.01544">
        <ele>1269.31</ele>
        <time>2016-03-08T14:38:40Z</time>
      </trkpt>
      <trkpt lat="48.04716" lon="7.01545">
        <ele>1269.08</ele>
        <time>2016-03-08T14:38:58Z</time>
      </trkpt>
      <trkpt lat="48.04715" lon="7.01541">
        <ele>1268.45</ele>
        <time>2016-03-08T14:39:04Z</time>
      </trkpt>
      <trkpt lat="48.04703" lon="7.01538">
        <ele>1268.58</ele>
        <time>2016-03-08T14:39:24Z</time>
      </trkpt>
      <trkpt lat="48.04703" lon="7.01537">
        <ele>1268.18</ele>
        <time>2016-03-08T14:39:38Z</time>
      </trkpt>
      <trkpt lat="48.047" lon="7.01549">
        <ele>1268.73</ele>
        <time>2016-03-08T14:39:54Z</time>
      </trkpt>
      <trkpt lat="48.04698" lon="7.0155">
        <ele>1268.28</ele>
        <time>2016-03-08T14:40:09Z</time>
      </trkpt>
      <trkpt lat="48.04699" lon="7.01549">
        <ele>1268.21</ele>
        <time>2016-03-08T14:40:36Z</time>
      </trkpt>
      <trkpt lat="48.04697" lon="7.01546">
        <ele>1267.94</ele>
        <time>2016-03-08T14:40:57Z</time>
      </trkpt>
      <trkpt lat="48.047" lon="7.01546">
        <ele>1268.72</ele>
        <time>2016-03-08T14:41:25Z</time>
      </trkpt>
      <trkpt lat="48.04702" lon="7.01548">
        <ele>1268.61</ele>
        <time>2016-03-08T14:41:39Z</time>
      </trkpt>
      <trkpt lat="48.04702" lon="7.01547">
        <ele>1268.67</ele>
        <time>2016-03-08T14:41:40Z</time>
      </trkpt>
      <trkpt lat="48.04705" lon="7.01541">
        <ele>1268.24</ele>
        <time>2016-03-08T14:41:53Z</time>
      </trkpt>
      <trkpt lat="48.04702" lon="7.01545">
        <ele>1267.9</ele>
        <time>2016-03-08T14:42:07Z</time>
      </trkpt>
      <trkpt lat="48.04699" lon="7.01548">
        <ele>1267.96</ele>
        <time>2016-03-08T14:42:21Z</time>
      </trkpt>
      <trkpt lat="48.047" lon="7.01547">
        <ele>1268.77</ele>
        <time>2016-03-08T14:42:22Z</time>
      </trkpt>
      <trkpt lat="48.04706" lon="7.01542">
        <ele>1268.82</ele>
        <time>2016-03-08T14:42:38Z</time>
      </trkpt>
      <trkpt lat="48.04708" lon="7.01544">
        <ele>1268.66</ele>
        <time>2016-03-08T14:42:56Z</time>
      </trkpt>
      <trkpt lat="48.04704" lon="7.01545">
        <ele>1268.17</ele>
        <time>2016-03-08T14:43:04Z</time>
      </trkpt>
      <trkpt lat="48.047" lon="7.01548">
        <ele>1267.62</ele>
        <time>2016-03-08T14:43:21Z</time>
      </trkpt>
      <trkpt lat="48.04699" lon="7.01548">
        <ele>1268.39</ele>
        <time>2016-03-08T14:43:52Z</time>
      </trkpt>
      <trkpt lat="48.04701" lon="7.01551">
        <ele>1267.93</ele>
        <time>2016-03-08T14:44:09Z</time>
      </trkpt>
      <trkpt lat="48.04702" lon="7.01551">
        <ele>1267.93</ele>
        <time>2016-03-08T14:44:29Z</time>
      </trkpt>
      <trkpt lat="48.04704" lon="7.01545">
        <ele>1267.11</ele>
        <time>2016-03-08T14:44:46Z</time>
      </trkpt>
      <trkpt lat="48.04707" lon="7.01547">
        <ele>1268.28</ele>
        <time>2016-03-08T14:45:01Z</time>
      </trkpt>
      <trkpt lat="48.04708" lon="7.01548">
        <ele>1268.45</ele>
        <time>2016-03-08T14:45:17Z</time>
      </trkpt>
      <trkpt lat="48.04707" lon="7.01552">
        <ele>1269.09</ele>
        <time>2016-03-08T14:45:30Z</time>
      </trkpt>
      <trkpt lat="48.04707" lon="7.01551">
        <ele>1268.6</ele>
        <time>2016-03-08T14:45:42Z</time>
      </trkpt>
      <trkpt lat="48.04708" lon="7.01546">
        <ele>1268.28</ele>
        <time>2016-03-08T14:45:58Z</time>
      </trkpt>
      <trkpt lat="48.04708" lon="7.01543">
        <ele>1267.67</ele>
        <time>2016-03-08T14:46:18Z</time>
      </trkpt>
      <trkpt lat="48.04716" lon="7.0153">
        <ele>1267.48</ele>
        <time>2016-03-08T14:46:34Z</time>
      </trkpt>
      <trkpt lat="48.04722" lon="7.01524">
        <ele>1267.27</ele>
        <time>2016-03-08T14:46:43Z</time>
      </trkpt>
      <trkpt lat="48.04726" lon="7.0152">
        <ele>1267.5</ele>
        <time>2016-03-08T14:46:49Z</time>
      </trkpt>
      <trkpt lat="48.04744" lon="7.01499">
        <ele>1266</ele>
        <time>2016-03-08T14:47:10Z</time>
      </trkpt>
      <trkpt lat="48.04752" lon="7.01474">
        <ele>1265.25</ele>
        <time>2016-03-08T14:47:29Z</time>
      </trkpt>
      <trkpt lat="48.04755" lon="7.01449">
        <ele>1265.15</ele>
        <time>2016-03-08T14:47:48Z</time>
      </trkpt>
      <trkpt lat="48.04763" lon="7.01426">
        <ele>1263.79</ele>
        <time>2016-03-08T14:48:09Z</time>
      </trkpt>
      <trkpt lat="48.04779" lon="7.01413">
        <ele>1262.55</ele>
        <time>2016-03-08T14:48:30Z</time>
      </trkpt>
      <trkpt lat="48.04786" lon="7.01405">
        <ele>1262.25</ele>
        <time>2016-03-08T14:48:39Z</time>
      </trkpt>
      <trkpt lat="48.04802" lon="7.01391">
        <ele>1260.28</ele>
        <time>2016-03-08T14:48:58Z</time>
      </trkpt>
      <trkpt lat="48.04803" lon="7.01389">
        <ele>1260.08</ele>
        <time>2016-03-08T14:49:00Z</time>
      </trkpt>
      <trkpt lat="48.04819" lon="7.0137">
        <ele>1259.04</ele>
        <time>2016-03-08T14:49:19Z</time>
      </trkpt>
      <trkpt lat="48.04832" lon="7.01366">
        <ele>1256.84</ele>
        <time>2016-03-08T14:49:34Z</time>
      </trkpt>
      <trkpt lat="48.04851" lon="7.01359">
        <ele>1253.71</ele>
        <time>2016-03-08T14:49:54Z</time>
      </trkpt>
      <trkpt lat="48.04871" lon="7.01348">
        <ele>1252.37</ele>
        <time>2016-03-08T14:50:17Z</time>
      </trkpt>
      <trkpt lat="48.04875" lon="7.0134">
        <ele>1251.62</ele>
        <time>2016-03-08T14:50:28Z</time>
      </trkpt>
      <trkpt lat="48.04886" lon="7.01319">
        <ele>1249.69</ele>
        <time>2016-03-08T14:50:48Z</time>
      </trkpt>
      <trkpt lat="48.04893" lon="7.01298">
        <ele>1249.75</ele>
        <time>2016-03-08T14:51:07Z</time>
      </trkpt>
      <trkpt lat="48.04892" lon="7.01274">
        <ele>1249.45</ele>
        <time>2016-03-08T14:51:29Z</time>
      </trkpt>
      <trkpt lat="48.04895" lon="7.01257">
        <ele>1249.37</ele>
        <time>2016-03-08T14:51:44Z</time>
      </trkpt>
      <trkpt lat="48.049" lon="7.01232">
        <ele>1248.83</ele>
        <time>2016-03-08T14:52:04Z</time>
      </trkpt>
      <trkpt lat="48.04901" lon="7.01212">
        <ele>1247.89</ele>
        <time>2016-03-08T14:52:24Z</time>
      </trkpt>
      <trkpt lat="48.04907" lon="7.01207">
        <ele>1247.47</ele>
        <time>2016-03-08T14:52:38Z</time>
      </trkpt>
      <trkpt lat="48.04924" lon="7.01197">
        <ele>1246.84</ele>
        <time>2016-03-08T14:52:58Z</time>
      </trkpt>
      <trkpt lat="48.0493" lon="7.01193">
        <ele>1245.47</ele>
        <time>2016-03-08T14:53:05Z</time>
      </trkpt>
      <trkpt lat="48.04945" lon="7.01177">
        <ele>1243.44</ele>
        <time>2016-03-08T14:53:25Z</time>
      </trkpt>
      <trkpt lat="48.04947" lon="7.01154">
        <ele>1241.54</ele>
        <time>2016-03-08T14:53:43Z</time>
      </trkpt>
      <trkpt lat="48.04946" lon="7.01123">
        <ele>1240.21</ele>
        <time>2016-03-08T14:54:05Z</time>
      </trkpt>
      <trkpt lat="48.04937" lon="7.01109">
        <ele>1240.09</ele>
        <time>2016-03-08T14:54:22Z</time>
      </trkpt>
      <trkpt lat="48.04923" lon="7.01103">
        <ele>1240.67</ele>
        <time>2016-03-08T14:54:41Z</time>
      </trkpt>
      <trkpt lat="48.04916" lon="7.0109">
        <ele>1240.6</ele>
        <time>2016-03-08T14:54:58Z</time>
      </trkpt>
      <trkpt lat="48.04915" lon="7.01086">
        <ele>1239.83</ele>
        <time>2016-03-08T14:55:17Z</time>
      </trkpt>
      <trkpt lat="48.04916" lon="7.01086">
        <ele>1239.62</ele>
        <time>2016-03-08T14:55:40Z</time>
      </trkpt>
      <trkpt lat="48.04917" lon="7.01086">
        <ele>1240.49</ele>
        <time>2016-03-08T14:56:07Z</time>
      </trkpt>
      <trkpt lat="48.04917" lon="7.01077">
        <ele>1239.6</ele>
        <time>2016-03-08T14:56:34Z</time>
      </trkpt>
      <trkpt lat="48.04918" lon="7.01052">
        <ele>1235.83</ele>
        <time>2016-03-08T14:56:55Z</time>
      </trkpt>
      <trkpt lat="48.04923" lon="7.0104">
        <ele>1232.66</ele>
        <time>2016-03-08T14:57:09Z</time>
      </trkpt>
      <trkpt lat="48.04929" lon="7.01026">
        <ele>1229.48</ele>
        <time>2016-03-08T14:57:22Z</time>
      </trkpt>
      <trkpt lat="48.0493" lon="7.01003">
        <ele>1226.94</ele>
        <time>2016-03-08T14:57:43Z</time>
      </trkpt>
      <trkpt lat="48.0493" lon="7.01001">
        <ele>1226.26</ele>
        <time>2016-03-08T14:57:45Z</time>
      </trkpt>
      <trkpt lat="48.04929" lon="7.0099">
        <ele>1224.02</ele>
        <time>2016-03-08T14:58:02Z</time>
      </trkpt>
      <trkpt lat="48.04929" lon="7.0099">
        <ele>1224.48</ele>
        <time>2016-03-08T14:58:18Z</time>
      </trkpt>
      <trkpt lat="48.04929" lon="7.0099">
        <ele>1223.75</ele>
        <time>2016-03-08T14:58:37Z</time>
      </trkpt>
      <trkpt lat="48.04929" lon="7.0099">
        <ele>1223.79</ele>
        <time>2016-03-08T14:58:55Z</time>
      </trkpt>
      <trkpt lat="48.04929" lon="7.0099">
        <ele>1224.19</ele>
        <time>2016-03-08T14:59:21Z</time>
      </trkpt>
      <trkpt lat="48.04932" lon="7.00984">
        <ele>1223.05</ele>
        <time>2016-03-08T14:59:38Z</time>
      </trkpt>
      <trkpt lat="48.04932" lon="7.00979">
        <ele>1222.78</ele>
        <time>2016-03-08T14:59:55Z</time>
      </trkpt>
      <trkpt lat="48.04936" lon="7.0098">
        <ele>1223.44</ele>
        <time>2016-03-08T15:00:08Z</time>
      </trkpt>
      <trkpt lat="48.04939" lon="7.00982">
        <ele>1224.4</ele>
        <time>2016-03-08T15:00:22Z</time>
      </trkpt>
      <trkpt lat="48.04942" lon="7.00985">
        <ele>1223.56</ele>
        <time>2016-03-08T15:00:37Z</time>
      </trkpt>
      <trkpt lat="48.04947" lon="7.00989">
        <ele>1223.87</ele>
        <time>2016-03-08T15:00:53Z</time>
      </trkpt>
      <trkpt lat="48.04948" lon="7.00989">
        <ele>1223.64</ele>
        <time>2016-03-08T15:01:15Z</time>
      </trkpt>
      <trkpt lat="48.04948" lon="7.00977">
        <ele>1221.27</ele>
        <time>2016-03-08T15:01:32Z</time>
      </trkpt>
      <trkpt lat="48.04946" lon="7.00966">
        <ele>1217.93</ele>
        <time>2016-03-08T15:01:47Z</time>
      </trkpt>
      <trkpt lat="48.04951" lon="7.00952">
        <ele>1215.23</ele>
        <time>2016-03-08T15:02:07Z</time>
      </trkpt>
      <trkpt lat="48.04955" lon="7.00951">
        <ele>1215.12</ele>
        <time>2016-03-08T15:02:24Z</time>
      </trkpt>
      <trkpt lat="48.04962" lon="7.00953">
        <ele>1214.91</ele>
        <time>2016-03-08T15:02:43Z</time>
      </trkpt>
      <trkpt lat="48.04975" lon="7.00958">
        <ele>1214.08</ele>
        <time>2016-03-08T15:03:02Z</time>
      </trkpt>
      <trkpt lat="48.04987" lon="7.00963">
        <ele>1213.56</ele>
        <time>2016-03-08T15:03:17Z</time>
      </trkpt>
      <trkpt lat="48.05" lon="7.00967">
        <ele>1212.65</ele>
        <time>2016-03-08T15:03:35Z</time>
      </trkpt>
      <trkpt lat="48.05006" lon="7.00968">
        <ele>1212.5</ele>
        <time>2016-03-08T15:03:51Z</time>
      </trkpt>
      <trkpt lat="48.0501" lon="7.00969">
        <ele>1212.41</ele>
        <time>2016-03-08T15:03:54Z</time>
      </trkpt>
      <trkpt lat="48.05025" lon="7.00973">
        <ele>1210.79</ele>
        <time>2016-03-08T15:04:09Z</time>
      </trkpt>
      <trkpt lat="48.05042" lon="7.00977">
        <ele>1209.14</ele>
        <time>2016-03-08T15:04:28Z</time>
      </trkpt>
      <trkpt lat="48.05059" lon="7.0098">
        <ele>1208.36</ele>
        <time>2016-03-08T15:04:51Z</time>
      </trkpt>
      <trkpt lat="48.05074" lon="7.00982">
        <ele>1206.8</ele>
        <time>2016-03-08T15:05:10Z</time>
      </trkpt>
      <trkpt lat="48.05092" lon="7.00986">
        <ele>1205.94</ele>
        <time>2016-03-08T15:05:34Z</time>
      </trkpt>
      <trkpt lat="48.05101" lon="7.00987">
        <ele>1204.7</ele>
        <time>2016-03-08T15:05:47Z</time>
      </trkpt>
      <trkpt lat="48.05119" lon="7.00991">
        <ele>1203.63</ele>
        <time>2016-03-08T15:06:07Z</time>
      </trkpt>
      <trkpt lat="48.05134" lon="7.00997">
        <ele>1202.45</ele>
        <time>2016-03-08T15:06:27Z</time>
      </trkpt>
      <trkpt lat="48.0515" lon="7.01002">
        <ele>1202.11</ele>
        <time>2016-03-08T15:06:46Z</time>
      </trkpt>
      <trkpt lat="48.05161" lon="7.01007">
        <ele>1200.92</ele>
        <time>2016-03-08T15:07:05Z</time>
      </trkpt>
      <trkpt lat="48.05165" lon="7.01007">
        <ele>1200.27</ele>
        <time>2016-03-08T15:07:24Z</time>
      </trkpt>
      <trkpt lat="48.05164" lon="7.01008">
        <ele>1200.53</ele>
        <time>2016-03-08T15:07:49Z</time>
      </trkpt>
      <trkpt lat="48.05165" lon="7.01008">
        <ele>1200.87</ele>
        <time>2016-03-08T15:08:11Z</time>
      </trkpt>
      <trkpt lat="48.05164" lon="7.0101">
        <ele>1201.03</ele>
        <time>2016-03-08T15:08:32Z</time>
      </trkpt>
      <trkpt lat="48.05166" lon="7.01009">
        <ele>1200.57</ele>
        <time>2016-03-08T15:08:53Z</time>
      </trkpt>
      <trkpt lat="48.05167" lon="7.01008">
        <ele>1200.56</ele>
        <time>2016-03-08T15:09:18Z</time>
      </trkpt>
      <trkpt lat="48.05167" lon="7.01008">
        <ele>1201.05</ele>
        <time>2016-03-08T15:09:44Z</time>
      </trkpt>
      <trkpt lat="48.05168" lon="7.01008">
        <ele>1200.57</ele>
        <time>2016-03-08T15:10:07Z</time>
      </trkpt>
      <trkpt lat="48.05168" lon="7.0101">
        <ele>1197.96</ele>
        <time>2016-03-08T15:10:41Z</time>
      </trkpt>
      <trkpt lat="48.05169" lon="7.01011">
        <ele>1199.89</ele>
        <time>2016-03-08T15:11:16Z</time>
      </trkpt>
      <trkpt lat="48.05168" lon="7.01011">
        <ele>1200.91</ele>
        <time>2016-03-08T15:12:05Z</time>
      </trkpt>
      <trkpt lat="48.05169" lon="7.01011">
        <ele>1200.33</ele>
        <time>2016-03-08T15:12:30Z</time>
      </trkpt>
      <trkpt lat="48.05169" lon="7.01008">
        <ele>1200.4</ele>
        <time>2016-03-08T15:12:59Z</time>
      </trkpt>
      <trkpt lat="48.05169" lon="7.01007">
        <ele>1199.87</ele>
        <time>2016-03-08T15:13:28Z</time>
      </trkpt>
      <trkpt lat="48.05167" lon="7.01008">
        <ele>1201.05</ele>
        <time>2016-03-08T15:13:55Z</time>
      </trkpt>
      <trkpt lat="48.05168" lon="7.01011">
        <ele>1200.58</ele>
        <time>2016-03-08T15:14:21Z</time>
      </trkpt>
      <trkpt lat="48.05181" lon="7.01017">
        <ele>1199.17</ele>
        <time>2016-03-08T15:14:41Z</time>
      </trkpt>
      <trkpt lat="48.05197" lon="7.01023">
        <ele>1197.65</ele>
        <time>2016-03-08T15:15:04Z</time>
      </trkpt>
      <trkpt lat="48.0521" lon="7.01028">
        <ele>1196.36</ele>
        <time>2016-03-08T15:15:21Z</time>
      </trkpt>
      <trkpt lat="48.05222" lon="7.01035">
        <ele>1196.13</ele>
        <time>2016-03-08T15:15:38Z</time>
      </trkpt>
      <trkpt lat="48.05231" lon="7.0104">
        <ele>1195.55</ele>
        <time>2016-03-08T15:15:59Z</time>
      </trkpt>
      <trkpt lat="48.05235" lon="7.01045">
        <ele>1195.31</ele>
        <time>2016-03-08T15:16:16Z</time>
      </trkpt>
      <trkpt lat="48.05242" lon="7.01052">
        <ele>1194.16</ele>
        <time>2016-03-08T15:16:32Z</time>
      </trkpt>
      <trkpt lat="48.05252" lon="7.01061">
        <ele>1193.42</ele>
        <time>2016-03-08T15:16:48Z</time>
      </trkpt>
      <trkpt lat="48.05253" lon="7.01062">
        <ele>1193.04</ele>
        <time>2016-03-08T15:16:49Z</time>
      </trkpt>
      <trkpt lat="48.05257" lon="7.01066">
        <ele>1193.48</ele>
        <time>2016-03-08T15:16:53Z</time>
      </trkpt>
      <trkpt lat="48.05265" lon="7.01073">
        <ele>1193.77</ele>
        <time>2016-03-08T15:17:05Z</time>
      </trkpt>
      <trkpt lat="48.05274" lon="7.01083">
        <ele>1192.57</ele>
        <time>2016-03-08T15:17:23Z</time>
      </trkpt>
      <trkpt lat="48.05282" lon="7.01089">
        <ele>1190.5</ele>
        <time>2016-03-08T15:17:42Z</time>
      </trkpt>
      <trkpt lat="48.05293" lon="7.01093">
        <ele>1189.79</ele>
        <time>2016-03-08T15:18:02Z</time>
      </trkpt>
      <trkpt lat="48.05301" lon="7.011">
        <ele>1189.51</ele>
        <time>2016-03-08T15:18:21Z</time>
      </trkpt>
      <trkpt lat="48.05311" lon="7.01104">
        <ele>1189.46</ele>
        <time>2016-03-08T15:18:36Z</time>
      </trkpt>
      <trkpt lat="48.05324" lon="7.01109">
        <ele>1188.01</ele>
        <time>2016-03-08T15:18:57Z</time>
      </trkpt>
      <trkpt lat="48.05336" lon="7.01115">
        <ele>1187.03</ele>
        <time>2016-03-08T15:19:18Z</time>
      </trkpt>
      <trkpt lat="48.05347" lon="7.01123">
        <ele>1186.86</ele>
        <time>2016-03-08T15:19:34Z</time>
      </trkpt>
      <trkpt lat="48.0536" lon="7.01123">
        <ele>1186.01</ele>
        <time>2016-03-08T15:19:52Z</time>
      </trkpt>
      <trkpt lat="48.05378" lon="7.01119">
        <ele>1185.38</ele>
        <time>2016-03-08T15:20:11Z</time>
      </trkpt>
      <trkpt lat="48.05381" lon="7.01109">
        <ele>1184.57</ele>
        <time>2016-03-08T15:20:25Z</time>
      </trkpt>
      <trkpt lat="48.05383" lon="7.01098">
        <ele>1182.58</ele>
        <time>2016-03-08T15:20:44Z</time>
      </trkpt>
      <trkpt lat="48.05387" lon="7.01092">
        <ele>1181.68</ele>
        <time>2016-03-08T15:20:59Z</time>
      </trkpt>
      <trkpt lat="48.05398" lon="7.01092">
        <ele>1182.7</ele>
        <time>2016-03-08T15:21:15Z</time>
      </trkpt>
      <trkpt lat="48.054" lon="7.01102">
        <ele>1183.82</ele>
        <time>2016-03-08T15:21:35Z</time>
      </trkpt>
      <trkpt lat="48.05403" lon="7.01096">
        <ele>1183.16</ele>
        <time>2016-03-08T15:22:01Z</time>
      </trkpt>
      <trkpt lat="48.05409" lon="7.01087">
        <ele>1181.53</ele>
        <time>2016-03-08T15:22:18Z</time>
      </trkpt>
      <trkpt lat="48.0542" lon="7.01071">
        <ele>1181.27</ele>
        <time>2016-03-08T15:22:37Z</time>
      </trkpt>
      <trkpt lat="48.05429" lon="7.01056">
        <ele>1181.26</ele>
        <time>2016-03-08T15:22:52Z</time>
      </trkpt>
      <trkpt lat="48.05437" lon="7.01037">
        <ele>1178.66</ele>
        <time>2016-03-08T15:23:07Z</time>
      </trkpt>
      <trkpt lat="48.05452" lon="7.01023">
        <ele>1177.99</ele>
        <time>2016-03-08T15:23:26Z</time>
      </trkpt>
      <trkpt lat="48.05463" lon="7.01014">
        <ele>1177.61</ele>
        <time>2016-03-08T15:23:45Z</time>
      </trkpt>
      <trkpt lat="48.05474" lon="7.01">
        <ele>1175.8</ele>
        <time>2016-03-08T15:24:04Z</time>
      </trkpt>
      <trkpt lat="48.05492" lon="7.00994">
        <ele>1175.37</ele>
        <time>2016-03-08T15:24:22Z</time>
      </trkpt>
      <trkpt lat="48.05509" lon="7.0099">
        <ele>1174.04</ele>
        <time>2016-03-08T15:24:40Z</time>
      </trkpt>
      <trkpt lat="48.05525" lon="7.01">
        <ele>1172.87</ele>
        <time>2016-03-08T15:24:58Z</time>
      </trkpt>
      <trkpt lat="48.05539" lon="7.01015">
        <ele>1172.37</ele>
        <time>2016-03-08T15:25:15Z</time>
      </trkpt>
      <trkpt lat="48.05552" lon="7.01034">
        <ele>1170.48</ele>
        <time>2016-03-08T15:25:36Z</time>
      </trkpt>
      <trkpt lat="48.05565" lon="7.01057">
        <ele>1169.73</ele>
        <time>2016-03-08T15:25:57Z</time>
      </trkpt>
      <trkpt lat="48.05577" lon="7.01078">
        <ele>1168.34</ele>
        <time>2016-03-08T15:26:16Z</time>
      </trkpt>
      <trkpt lat="48.05591" lon="7.01101">
        <ele>1166.1</ele>
        <time>2016-03-08T15:26:39Z</time>
      </trkpt>
      <trkpt lat="48.05601" lon="7.01119">
        <ele>1165</ele>
        <time>2016-03-08T15:26:55Z</time>
      </trkpt>
      <trkpt lat="48.05609" lon="7.01132">
        <ele>1165.01</ele>
        <time>2016-03-08T15:27:08Z</time>
      </trkpt>
      <trkpt lat="48.0562" lon="7.01151">
        <ele>1163.3</ele>
        <time>2016-03-08T15:27:28Z</time>
      </trkpt>
      <trkpt lat="48.05634" lon="7.01167">
        <ele>1161.28</ele>
        <time>2016-03-08T15:27:47Z</time>
      </trkpt>
      <trkpt lat="48.05647" lon="7.01183">
        <ele>1160.27</ele>
        <time>2016-03-08T15:28:04Z</time>
      </trkpt>
      <trkpt lat="48.0566" lon="7.012">
        <ele>1159.13</ele>
        <time>2016-03-08T15:28:23Z</time>
      </trkpt>
      <trkpt lat="48.05673" lon="7.01221">
        <ele>1157.2</ele>
        <time>2016-03-08T15:28:44Z</time>
      </trkpt>
      <trkpt lat="48.05685" lon="7.01236">
        <ele>1156.19</ele>
        <time>2016-03-08T15:29:03Z</time>
      </trkpt>
      <trkpt lat="48.05701" lon="7.01253">
        <ele>1154.17</ele>
        <time>2016-03-08T15:29:24Z</time>
      </trkpt>
      <trkpt lat="48.05717" lon="7.0127">
        <ele>1152.83</ele>
        <time>2016-03-08T15:29:47Z</time>
      </trkpt>
      <trkpt lat="48.05727" lon="7.0128">
        <ele>1151.4</ele>
        <time>2016-03-08T15:30:05Z</time>
      </trkpt>
      <trkpt lat="48.05738" lon="7.01285">
        <ele>1150.84</ele>
        <time>2016-03-08T15:30:24Z</time>
      </trkpt>
      <trkpt lat="48.05742" lon="7.01289">
        <ele>1144.33</ele>
        <time>2016-03-08T15:30:36Z</time>
      </trkpt>
      <trkpt lat="48.05742" lon="7.0129">
        <ele>1151.51</ele>
        <time>2016-03-08T15:30:37Z</time>
      </trkpt>
      <trkpt lat="48.05743" lon="7.01292">
        <ele>1150.95</ele>
        <time>2016-03-08T15:31:03Z</time>
      </trkpt>
      <trkpt lat="48.05751" lon="7.01289">
        <ele>1149.92</ele>
        <time>2016-03-08T15:31:24Z</time>
      </trkpt>
      <trkpt lat="48.05756" lon="7.01287">
        <ele>1151.14</ele>
        <time>2016-03-08T15:31:49Z</time>
      </trkpt>
      <trkpt lat="48.05774" lon="7.01294">
        <ele>1150.77</ele>
        <time>2016-03-08T15:32:08Z</time>
      </trkpt>
      <trkpt lat="48.05786" lon="7.01299">
        <ele>1150.49</ele>
        <time>2016-03-08T15:32:19Z</time>
      </trkpt>
      <trkpt lat="48.05803" lon="7.01305">
        <ele>1151.06</ele>
        <time>2016-03-08T15:32:37Z</time>
      </trkpt>
      <trkpt lat="48.05811" lon="7.01308">
        <ele>1150.92</ele>
        <time>2016-03-08T15:32:58Z</time>
      </trkpt>
      <trkpt lat="48.05813" lon="7.01307">
        <ele>1151.53</ele>
        <time>2016-03-08T15:33:21Z</time>
      </trkpt>
      <trkpt lat="48.05813" lon="7.01304">
        <ele>1150.66</ele>
        <time>2016-03-08T15:33:43Z</time>
      </trkpt>
      <trkpt lat="48.05814" lon="7.01302">
        <ele>1151.15</ele>
        <time>2016-03-08T15:34:09Z</time>
      </trkpt>
      <trkpt lat="48.05825" lon="7.01309">
        <ele>1151.33</ele>
        <time>2016-03-08T15:34:30Z</time>
      </trkpt>
      <trkpt lat="48.05842" lon="7.01314">
        <ele>1150.88</ele>
        <time>2016-03-08T15:34:50Z</time>
      </trkpt>
      <trkpt lat="48.0586" lon="7.01321">
        <ele>1151.03</ele>
        <time>2016-03-08T15:35:11Z</time>
      </trkpt>
      <trkpt lat="48.05878" lon="7.01326">
        <ele>1150.16</ele>
        <time>2016-03-08T15:35:32Z</time>
      </trkpt>
      <trkpt lat="48.05897" lon="7.0133">
        <ele>1149.21</ele>
        <time>2016-03-08T15:35:52Z</time>
      </trkpt>
      <trkpt lat="48.05918" lon="7.01342">
        <ele>1148.58</ele>
        <time>2016-03-08T15:36:14Z</time>
      </trkpt>
      <trkpt lat="48.05937" lon="7.01349">
        <ele>1147.94</ele>
        <time>2016-03-08T15:36:33Z</time>
      </trkpt>
      <trkpt lat="48.05953" lon="7.0136">
        <ele>1146.75</ele>
        <time>2016-03-08T15:36:53Z</time>
      </trkpt>
      <trkpt lat="48.05971" lon="7.01371">
        <ele>1145.48</ele>
        <time>2016-03-08T15:37:15Z</time>
      </trkpt>
      <trkpt lat="48.05989" lon="7.01385">
        <ele>1145.37</ele>
        <time>2016-03-08T15:37:34Z</time>
      </trkpt>
      <trkpt lat="48.06005" lon="7.01396">
        <ele>1144.27</ele>
        <time>2016-03-08T15:37:52Z</time>
      </trkpt>
      <trkpt lat="48.06021" lon="7.01408">
        <ele>1143.81</ele>
        <time>2016-03-08T15:38:14Z</time>
      </trkpt>
      <trkpt lat="48.06037" lon="7.01421">
        <ele>1143.76</ele>
        <time>2016-03-08T15:38:33Z</time>
      </trkpt>
      <trkpt lat="48.06053" lon="7.01433">
        <ele>1141.92</ele>
        <time>2016-03-08T15:38:52Z</time>
      </trkpt>
      <trkpt lat="48.06071" lon="7.01447">
        <ele>1141.6</ele>
        <time>2016-03-08T15:39:13Z</time>
      </trkpt>
      <trkpt lat="48.06084" lon="7.01464">
        <ele>1140.64</ele>
        <time>2016-03-08T15:39:29Z</time>
      </trkpt>
      <trkpt lat="48.06101" lon="7.01482">
        <ele>1139.77</ele>
        <time>2016-03-08T15:39:49Z</time>
      </trkpt>
      <trkpt lat="48.06113" lon="7.01495">
        <ele>1139.08</ele>
        <time>2016-03-08T15:40:04Z</time>
      </trkpt>
      <trkpt lat="48.06127" lon="7.01516">
        <ele>1139.06</ele>
        <time>2016-03-08T15:40:24Z</time>
      </trkpt>
      <trkpt lat="48.06142" lon="7.01534">
        <ele>1137.64</ele>
        <time>2016-03-08T15:40:44Z</time>
      </trkpt>
      <trkpt lat="48.06155" lon="7.01555">
        <ele>1137.35</ele>
        <time>2016-03-08T15:41:04Z</time>
      </trkpt>
      <trkpt lat="48.06167" lon="7.01574">
        <ele>1136.31</ele>
        <time>2016-03-08T15:41:22Z</time>
      </trkpt>
      <trkpt lat="48.06181" lon="7.01595">
        <ele>1136.25</ele>
        <time>2016-03-08T15:41:44Z</time>
      </trkpt>
      <trkpt lat="48.06191" lon="7.01617">
        <ele>1135.49</ele>
        <time>2016-03-08T15:42:02Z</time>
      </trkpt>
      <trkpt lat="48.06198" lon="7.0164">
        <ele>1134.67</ele>
        <time>2016-03-08T15:42:21Z</time>
      </trkpt>
      <trkpt lat="48.0621" lon="7.01667">
        <ele>1133.58</ele>
        <time>2016-03-08T15:42:43Z</time>
      </trkpt>
      <trkpt lat="48.06212" lon="7.01682">
        <ele>1134.1</ele>
        <time>2016-03-08T15:43:03Z</time>
      </trkpt>
      <trkpt lat="48.06213" lon="7.01684">
        <ele>1133.85</ele>
        <time>2016-03-08T15:43:07Z</time>
      </trkpt>
      <trkpt lat="48.06224" lon="7.01691">
        <ele>1132.36</ele>
        <time>2016-03-08T15:43:16Z</time>
      </trkpt>
      <trkpt lat="48.06231" lon="7.01697">
        <ele>1131.81</ele>
        <time>2016-03-08T15:43:34Z</time>
      </trkpt>
      <trkpt lat="48.0623" lon="7.01699">
        <ele>1131.61</ele>
        <time>2016-03-08T15:43:54Z</time>
      </trkpt>
      <trkpt lat="48.06228" lon="7.01698">
        <ele>1132.64</ele>
        <time>2016-03-08T15:44:11Z</time>
      </trkpt>
      <trkpt lat="48.06228" lon="7.01699">
        <ele>1132.03</ele>
        <time>2016-03-08T15:44:26Z</time>
      </trkpt>
      <trkpt lat="48.06229" lon="7.01699">
        <ele>1131.68</ele>
        <time>2016-03-08T15:44:46Z</time>
      </trkpt>
      <trkpt lat="48.06228" lon="7.01699">
        <ele>1131.74</ele>
        <time>2016-03-08T15:45:07Z</time>
      </trkpt>
      <trkpt lat="48.06228" lon="7.01698">
        <ele>1132.01</ele>
        <time>2016-03-08T15:45:38Z</time>
      </trkpt>
      <trkpt lat="48.06229" lon="7.01698">
        <ele>1132.2</ele>
        <time>2016-03-08T15:46:02Z</time>
      </trkpt>
      <trkpt lat="48.06225" lon="7.01696">
        <ele>1132.31</ele>
        <time>2016-03-08T15:46:27Z</time>
      </trkpt>
      <trkpt lat="48.06216" lon="7.01696">
        <ele>1132.89</ele>
        <time>2016-03-08T15:46:36Z</time>
      </trkpt>
      <trkpt lat="48.06216" lon="7.01705">
        <ele>1134.56</ele>
        <time>2016-03-08T15:46:47Z</time>
      </trkpt>
      <trkpt lat="48.0622" lon="7.01724">
        <ele>1133.16</ele>
        <time>2016-03-08T15:47:03Z</time>
      </trkpt>
      <trkpt lat="48.06225" lon="7.01739">
        <ele>1133.41</ele>
        <time>2016-03-08T15:47:21Z</time>
      </trkpt>
      <trkpt lat="48.06228" lon="7.01758">
        <ele>1132.77</ele>
        <time>2016-03-08T15:47:36Z</time>
      </trkpt>
      <trkpt lat="48.06229" lon="7.01767">
        <ele>1131.89</ele>
        <time>2016-03-08T15:47:50Z</time>
      </trkpt>
      <trkpt lat="48.06232" lon="7.01782">
        <ele>1132.37</ele>
        <time>2016-03-08T15:48:04Z</time>
      </trkpt>
      <trkpt lat="48.06235" lon="7.01808">
        <ele>1131.54</ele>
        <time>2016-03-08T15:48:23Z</time>
      </trkpt>
      <trkpt lat="48.06235" lon="7.01821">
        <ele>1131.61</ele>
        <time>2016-03-08T15:48:31Z</time>
      </trkpt>
      <trkpt lat="48.06236" lon="7.01838">
        <ele>1130.4</ele>
        <time>2016-03-08T15:48:43Z</time>
      </trkpt>
      <trkpt lat="48.06236" lon="7.01847">
        <ele>1130.22</ele>
        <time>2016-03-08T15:48:49Z</time>
      </trkpt>
      <trkpt lat="48.06236" lon="7.01859">
        <ele>1130.58</ele>
        <time>2016-03-08T15:48:57Z</time>
      </trkpt>
      <trkpt lat="48.06237" lon="7.01884">
        <ele>1129.97</ele>
        <time>2016-03-08T15:49:13Z</time>
      </trkpt>
      <trkpt lat="48.06238" lon="7.01912">
        <ele>1129.78</ele>
        <time>2016-03-08T15:49:32Z</time>
      </trkpt>
      <trkpt lat="48.06241" lon="7.01939">
        <ele>1129.37</ele>
        <time>2016-03-08T15:49:50Z</time>
      </trkpt>
      <trkpt lat="48.06246" lon="7.01966">
        <ele>1129.18</ele>
        <time>2016-03-08T15:50:10Z</time>
      </trkpt>
      <trkpt lat="48.06248" lon="7.01984">
        <ele>1128.83</ele>
        <time>2016-03-08T15:50:25Z</time>
      </trkpt>
      <trkpt lat="48.06247" lon="7.01989">
        <ele>1128.63</ele>
        <time>2016-03-08T15:50:29Z</time>
      </trkpt>
      <trkpt lat="48.06244" lon="7.02002">
        <ele>1127.62</ele>
        <time>2016-03-08T15:50:39Z</time>
      </trkpt>
      <trkpt lat="48.06237" lon="7.02022">
        <ele>1127.48</ele>
        <time>2016-03-08T15:50:55Z</time>
      </trkpt>
      <trkpt lat="48.06232" lon="7.02037">
        <ele>1127.63</ele>
        <time>2016-03-08T15:51:10Z</time>
      </trkpt>
      <trkpt lat="48.06229" lon="7.0206">
        <ele>1127.26</ele>
        <time>2016-03-08T15:51:28Z</time>
      </trkpt>
      <trkpt lat="48.0623" lon="7.02071">
        <ele>1127.02</ele>
        <time>2016-03-08T15:51:35Z</time>
      </trkpt>
      <trkpt lat="48.06234" lon="7.02091">
        <ele>1127.14</ele>
        <time>2016-03-08T15:51:46Z</time>
      </trkpt>
      <trkpt lat="48.06248" lon="7.02107">
        <ele>1125.24</ele>
        <time>2016-03-08T15:52:02Z</time>
      </trkpt>
      <trkpt lat="48.06253" lon="7.02111">
        <ele>1125.43</ele>
        <time>2016-03-08T15:52:06Z</time>
      </trkpt>
      <trkpt lat="48.06259" lon="7.02113">
        <ele>1125.38</ele>
        <time>2016-03-08T15:52:11Z</time>
      </trkpt>
      <trkpt lat="48.06273" lon="7.02118">
        <ele>1126.62</ele>
        <time>2016-03-08T15:52:26Z</time>
      </trkpt>
      <trkpt lat="48.06286" lon="7.02138">
        <ele>1128.12</ele>
        <time>2016-03-08T15:52:44Z</time>
      </trkpt>
      <trkpt lat="48.06294" lon="7.02149">
        <ele>1127.92</ele>
        <time>2016-03-08T15:52:58Z</time>
      </trkpt>
      <trkpt lat="48.06298" lon="7.02151">
        <ele>1127.5</ele>
        <time>2016-03-08T15:53:16Z</time>
      </trkpt>
      <trkpt lat="48.063" lon="7.02153">
        <ele>1126.73</ele>
        <time>2016-03-08T15:53:23Z</time>
      </trkpt>
      <trkpt lat="48.06303" lon="7.02156">
        <ele>1126.19</ele>
        <time>2016-03-08T15:53:26Z</time>
      </trkpt>
      <trkpt lat="48.06319" lon="7.02166">
        <ele>1125.74</ele>
        <time>2016-03-08T15:53:45Z</time>
      </trkpt>
      <trkpt lat="48.06333" lon="7.02181">
        <ele>1124.23</ele>
        <time>2016-03-08T15:54:03Z</time>
      </trkpt>
      <trkpt lat="48.06342" lon="7.02201">
        <ele>1125.1</ele>
        <time>2016-03-08T15:54:17Z</time>
      </trkpt>
      <trkpt lat="48.06353" lon="7.02209">
        <ele>1125.31</ele>
        <time>2016-03-08T15:54:31Z</time>
      </trkpt>
      <trkpt lat="48.06353" lon="7.02208">
        <ele>1124.4</ele>
        <time>2016-03-08T15:54:50Z</time>
      </trkpt>
      <trkpt lat="48.06354" lon="7.0221">
        <ele>1124.59</ele>
        <time>2016-03-08T15:55:05Z</time>
      </trkpt>
      <trkpt lat="48.06353" lon="7.0221">
        <ele>1118.61</ele>
        <time>2016-03-08T15:55:17Z</time>
      </trkpt>
      <trkpt lat="48.06354" lon="7.0221">
        <ele>1122.25</ele>
        <time>2016-03-08T15:55:18Z</time>
      </trkpt>
      <trkpt lat="48.06354" lon="7.0221">
        <ele>1125.66</ele>
        <time>2016-03-08T15:55:22Z</time>
      </trkpt>
      <trkpt lat="48.06354" lon="7.02209">
        <ele>1118.6</ele>
        <time>2016-03-08T15:55:26Z</time>
      </trkpt>
      <trkpt lat="48.06354" lon="7.02209">
        <ele>1122.39</ele>
        <time>2016-03-08T15:55:27Z</time>
      </trkpt>
      <trkpt lat="48.06354" lon="7.02208">
        <ele>1127.5</ele>
        <time>2016-03-08T15:55:29Z</time>
      </trkpt>
      <trkpt lat="48.06354" lon="7.02208">
        <ele>1121.76</ele>
        <time>2016-03-08T15:55:30Z</time>
      </trkpt>
      <trkpt lat="48.06355" lon="7.02208">
        <ele>1125.59</ele>
        <time>2016-03-08T15:55:34Z</time>
      </trkpt>
      <trkpt lat="48.06354" lon="7.02208">
        <ele>1129.22</ele>
        <time>2016-03-08T15:55:38Z</time>
      </trkpt>
      <trkpt lat="48.06354" lon="7.02208">
        <ele>1125.35</ele>
        <time>2016-03-08T15:55:39Z</time>
      </trkpt>
      <trkpt lat="48.06354" lon="7.02208">
        <ele>1124.72</ele>
        <time>2016-03-08T15:55:41Z</time>
      </trkpt>
      <trkpt lat="48.06354" lon="7.02208">
        <ele>1121.3</ele>
        <time>2016-03-08T15:55:49Z</time>
      </trkpt>
      <trkpt lat="48.06353" lon="7.02208">
        <ele>1123.44</ele>
        <time>2016-03-08T15:55:50Z</time>
      </trkpt>
      <trkpt lat="48.06353" lon="7.02208">
        <ele>1127.67</ele>
        <time>2016-03-08T15:55:55Z</time>
      </trkpt>
      <trkpt lat="48.06353" lon="7.02209">
        <ele>1125.23</ele>
        <time>2016-03-08T15:55:56Z</time>
      </trkpt>
      <trkpt lat="48.06353" lon="7.02209">
        <ele>1118.66</ele>
        <time>2016-03-08T15:56:13Z</time>
      </trkpt>
      <trkpt lat="48.06353" lon="7.02209">
        <ele>1127.55</ele>
        <time>2016-03-08T15:56:14Z</time>
      </trkpt>
      <trkpt lat="48.06353" lon="7.02209">
        <ele>1127.55</ele>
        <time>2016-03-08T15:56:15Z</time>
      </trkpt>
      <trkpt lat="48.06353" lon="7.0221">
        <ele>1120.94</ele>
        <time>2016-03-08T15:56:21Z</time>
      </trkpt>
      <trkpt lat="48.06353" lon="7.0221">
        <ele>1126.1</ele>
        <time>2016-03-08T15:56:22Z</time>
      </trkpt>
      <trkpt lat="48.06353" lon="7.02209">
        <ele>1125.27</ele>
        <time>2016-03-08T15:56:47Z</time>
      </trkpt>
      <trkpt lat="48.06352" lon="7.02208">
        <ele>1125.33</ele>
        <time>2016-03-08T15:57:04Z</time>
      </trkpt>
      <trkpt lat="48.06352" lon="7.02209">
        <ele>1125.43</ele>
        <time>2016-03-08T15:57:26Z</time>
      </trkpt>
      <trkpt lat="48.06352" lon="7.02211">
        <ele>1125.15</ele>
        <time>2016-03-08T15:57:48Z</time>
      </trkpt>
      <trkpt lat="48.06353" lon="7.0221">
        <ele>1125.04</ele>
        <time>2016-03-08T15:58:07Z</time>
      </trkpt>
      <trkpt lat="48.06352" lon="7.02211">
        <ele>1125.31</ele>
        <time>2016-03-08T15:58:31Z</time>
      </trkpt>
      <trkpt lat="48.06351" lon="7.02209">
        <ele>1126.4</ele>
        <time>2016-03-08T15:58:56Z</time>
      </trkpt>
      <trkpt lat="48.06352" lon="7.02208">
        <ele>1126.11</ele>
        <time>2016-03-08T15:59:13Z</time>
      </trkpt>
      <trkpt lat="48.06352" lon="7.02208">
        <ele>1125.77</ele>
        <time>2016-03-08T15:59:26Z</time>
      </trkpt>
      <trkpt lat="48.06352" lon="7.02209">
        <ele>1126.11</ele>
        <time>2016-03-08T15:59:44Z</time>
      </trkpt>
      <trkpt lat="48.06351" lon="7.02209">
        <ele>1126.2</ele>
        <time>2016-03-08T15:59:59Z</time>
      </trkpt>
      <trkpt lat="48.06351" lon="7.02209">
        <ele>1126.27</ele>
        <time>2016-03-08T16:00:18Z</time>
      </trkpt>
      <trkpt lat="48.06351" lon="7.02208">
        <ele>1126.14</ele>
        <time>2016-03-08T16:00:37Z</time>
      </trkpt>
      <trkpt lat="48.06354" lon="7.02206">
        <ele>1126.12</ele>
        <time>2016-03-08T16:00:56Z</time>
      </trkpt>
      <trkpt lat="48.06352" lon="7.02208">
        <ele>1126.13</ele>
        <time>2016-03-08T16:01:03Z</time>
      </trkpt>
      <trkpt lat="48.06348" lon="7.02206">
        <ele>1126.05</ele>
        <time>2016-03-08T16:01:07Z</time>
      </trkpt>
      <trkpt lat="48.06341" lon="7.02203">
        <ele>1126.41</ele>
        <time>2016-03-08T16:01:22Z</time>
      </trkpt>
      <trkpt lat="48.06339" lon="7.02196">
        <ele>1126.29</ele>
        <time>2016-03-08T16:01:38Z</time>
      </trkpt>
      <trkpt lat="48.06339" lon="7.02195">
        <ele>1126.81</ele>
        <time>2016-03-08T16:01:42Z</time>
      </trkpt>
      <trkpt lat="48.06335" lon="7.02194">
        <ele>1126.5</ele>
        <time>2016-03-08T16:02:03Z</time>
      </trkpt>
      <trkpt lat="48.06337" lon="7.0219">
        <ele>1126.82</ele>
        <time>2016-03-08T16:02:28Z</time>
      </trkpt>
      <trkpt lat="48.06337" lon="7.0219">
        <ele>1126.49</ele>
        <time>2016-03-08T16:02:48Z</time>
      </trkpt>
      <trkpt lat="48.06337" lon="7.02191">
        <ele>1127</ele>
        <time>2016-03-08T16:03:18Z</time>
      </trkpt>
    </trkseg>
  </trk>
</gpx>